<?xml version="1.0" encoding="UTF-8" standalone="no" ?>
<gpx xmlns="http://www.topografix.com/GPX/1/1" xmlns:xsi="http://www.w3.org/2001/XMLSchema-instance" xsi:schemaLocation="http://www.topografix.com/GPX/1/1 http://www.topografix.com/GPX/1/1/gpx.xsd" version="1.1" creator="VisuGPX - https://www.visugpx.com">
  <metadata>
    <name>2022-10-22 autour du Schweisel</name>
  </metadata>
  <trk>
    <name><![CDATA[2022-10-22 14:53]]></name>
    <extensions>
      <line xmlns="http://www.topografix.com/GPX/gpx_style/0/2">
        <color>0000FF</color>
        <opacity>0.59</opacity>
        <width>6</width>
      </line>
    </extensions>
    <trkseg>
      <trkpt lat="47.98439" lon="6.98212">
        <ele>1222.7</ele>
        <time>2022-10-22T12:53:43.000Z</time>
      </trkpt>
      <trkpt lat="47.98432" lon="6.98212">
        <ele>1222.6</ele>
        <time>2022-10-22T12:53:53.000Z</time>
      </trkpt>
      <trkpt lat="47.98425" lon="6.9822">
        <ele>1222.1</ele>
        <time>2022-10-22T12:54:03.000Z</time>
      </trkpt>
      <trkpt lat="47.98421" lon="6.98224">
        <ele>1222</ele>
        <time>2022-10-22T12:54:13.000Z</time>
      </trkpt>
      <trkpt lat="47.98416" lon="6.98239">
        <ele>1222</ele>
        <time>2022-10-22T12:54:23.000Z</time>
      </trkpt>
      <trkpt lat="47.98408" lon="6.98251">
        <ele>1223.3</ele>
        <time>2022-10-22T12:54:33.000Z</time>
      </trkpt>
      <trkpt lat="47.98398" lon="6.98259">
        <ele>1224.7</ele>
        <time>2022-10-22T12:54:43.000Z</time>
      </trkpt>
      <trkpt lat="47.98386" lon="6.98267">
        <ele>1226.2</ele>
        <time>2022-10-22T12:54:52.709Z</time>
      </trkpt>
      <trkpt lat="47.98375" lon="6.98269">
        <ele>1227.3</ele>
        <time>2022-10-22T12:55:01.790Z</time>
      </trkpt>
      <trkpt lat="47.98366" lon="6.98271">
        <ele>1228.3</ele>
        <time>2022-10-22T12:55:11.011Z</time>
      </trkpt>
      <trkpt lat="47.98363" lon="6.98265">
        <ele>1228.3</ele>
        <time>2022-10-22T12:55:21.000Z</time>
      </trkpt>
      <trkpt lat="47.9836" lon="6.98273">
        <ele>1228.8</ele>
        <time>2022-10-22T12:55:30.510Z</time>
      </trkpt>
      <trkpt lat="47.98349" lon="6.98284">
        <ele>1228.5</ele>
        <time>2022-10-22T12:55:39.635Z</time>
      </trkpt>
      <trkpt lat="47.9834" lon="6.98294">
        <ele>1227.7</ele>
        <time>2022-10-22T12:55:48.751Z</time>
      </trkpt>
      <trkpt lat="47.98333" lon="6.98308">
        <ele>1226.8</ele>
        <time>2022-10-22T12:55:57.867Z</time>
      </trkpt>
      <trkpt lat="47.98326" lon="6.98318">
        <ele>1225.3</ele>
        <time>2022-10-22T12:56:07.072Z</time>
      </trkpt>
      <trkpt lat="47.98314" lon="6.98329">
        <ele>1223.7</ele>
        <time>2022-10-22T12:56:16.670Z</time>
      </trkpt>
      <trkpt lat="47.98305" lon="6.98336">
        <ele>1222.6</ele>
        <time>2022-10-22T12:56:25.849Z</time>
      </trkpt>
      <trkpt lat="47.98293" lon="6.98335">
        <ele>1221.5</ele>
        <time>2022-10-22T12:56:36.000Z</time>
      </trkpt>
      <trkpt lat="47.98281" lon="6.98335">
        <ele>1220.3</ele>
        <time>2022-10-22T12:56:45.111Z</time>
      </trkpt>
      <trkpt lat="47.9827" lon="6.98339">
        <ele>1219.3</ele>
        <time>2022-10-22T12:56:55.000Z</time>
      </trkpt>
      <trkpt lat="47.98258" lon="6.98348">
        <ele>1218.8</ele>
        <time>2022-10-22T12:57:04.694Z</time>
      </trkpt>
      <trkpt lat="47.98247" lon="6.98351">
        <ele>1218.4</ele>
        <time>2022-10-22T12:57:14.000Z</time>
      </trkpt>
      <trkpt lat="47.98241" lon="6.98355">
        <ele>1218.1</ele>
        <time>2022-10-22T12:57:24.000Z</time>
      </trkpt>
      <trkpt lat="47.98229" lon="6.98362">
        <ele>1217.4</ele>
        <time>2022-10-22T12:57:34.000Z</time>
      </trkpt>
      <trkpt lat="47.98217" lon="6.98367">
        <ele>1216.3</ele>
        <time>2022-10-22T12:57:43.035Z</time>
      </trkpt>
      <trkpt lat="47.98205" lon="6.98368">
        <ele>1214.8</ele>
        <time>2022-10-22T12:57:52.149Z</time>
      </trkpt>
      <trkpt lat="47.98192" lon="6.98371">
        <ele>1213.4</ele>
        <time>2022-10-22T12:58:01.891Z</time>
      </trkpt>
      <trkpt lat="47.9818" lon="6.98376">
        <ele>1211.9</ele>
        <time>2022-10-22T12:58:12.148Z</time>
      </trkpt>
      <trkpt lat="47.98167" lon="6.9838">
        <ele>1210.3</ele>
        <time>2022-10-22T12:58:21.709Z</time>
      </trkpt>
      <trkpt lat="47.98156" lon="6.98384">
        <ele>1209.3</ele>
        <time>2022-10-22T12:58:30.991Z</time>
      </trkpt>
      <trkpt lat="47.9815" lon="6.98388">
        <ele>1208.8</ele>
        <time>2022-10-22T12:58:40.513Z</time>
      </trkpt>
      <trkpt lat="47.9814" lon="6.98389">
        <ele>1208.1</ele>
        <time>2022-10-22T12:58:50.112Z</time>
      </trkpt>
      <trkpt lat="47.98125" lon="6.98394">
        <ele>1206.3</ele>
        <time>2022-10-22T12:58:59.654Z</time>
      </trkpt>
      <trkpt lat="47.98115" lon="6.98398">
        <ele>1204.8</ele>
        <time>2022-10-22T12:59:08.891Z</time>
      </trkpt>
      <trkpt lat="47.98106" lon="6.98405">
        <ele>1203.1</ele>
        <time>2022-10-22T12:59:18.000Z</time>
      </trkpt>
      <trkpt lat="47.98096" lon="6.98411">
        <ele>1201.7</ele>
        <time>2022-10-22T12:59:28.000Z</time>
      </trkpt>
      <trkpt lat="47.98095" lon="6.98416">
        <ele>1201.2</ele>
        <time>2022-10-22T12:59:37.449Z</time>
      </trkpt>
      <trkpt lat="47.98082" lon="6.98422">
        <ele>1199.6</ele>
        <time>2022-10-22T12:59:46.782Z</time>
      </trkpt>
      <trkpt lat="47.98071" lon="6.9843">
        <ele>1198.4</ele>
        <time>2022-10-22T12:59:56.070Z</time>
      </trkpt>
      <trkpt lat="47.98059" lon="6.98436">
        <ele>1197.3</ele>
        <time>2022-10-22T13:00:05.710Z</time>
      </trkpt>
      <trkpt lat="47.98048" lon="6.98446">
        <ele>1196</ele>
        <time>2022-10-22T13:00:14.797Z</time>
      </trkpt>
      <trkpt lat="47.98038" lon="6.98451">
        <ele>1194.7</ele>
        <time>2022-10-22T13:00:23.991Z</time>
      </trkpt>
      <trkpt lat="47.98025" lon="6.98459">
        <ele>1193.2</ele>
        <time>2022-10-22T13:00:33.000Z</time>
      </trkpt>
      <trkpt lat="47.98012" lon="6.98465">
        <ele>1192</ele>
        <time>2022-10-22T13:00:42.172Z</time>
      </trkpt>
      <trkpt lat="47.98002" lon="6.98475">
        <ele>1191.2</ele>
        <time>2022-10-22T13:00:51.873Z</time>
      </trkpt>
      <trkpt lat="47.97989" lon="6.98483">
        <ele>1190.7</ele>
        <time>2022-10-22T13:01:02.011Z</time>
      </trkpt>
      <trkpt lat="47.97979" lon="6.9849">
        <ele>1190.7</ele>
        <time>2022-10-22T13:01:11.467Z</time>
      </trkpt>
      <trkpt lat="47.97967" lon="6.98496">
        <ele>1191</ele>
        <time>2022-10-22T13:01:20.655Z</time>
      </trkpt>
      <trkpt lat="47.97956" lon="6.98505">
        <ele>1191.7</ele>
        <time>2022-10-22T13:01:30.032Z</time>
      </trkpt>
      <trkpt lat="47.97946" lon="6.98511">
        <ele>1192.3</ele>
        <time>2022-10-22T13:01:39.148Z</time>
      </trkpt>
      <trkpt lat="47.97934" lon="6.98519">
        <ele>1193.3</ele>
        <time>2022-10-22T13:01:48.669Z</time>
      </trkpt>
      <trkpt lat="47.97923" lon="6.98523">
        <ele>1194.2</ele>
        <time>2022-10-22T13:01:58.052Z</time>
      </trkpt>
      <trkpt lat="47.97912" lon="6.98524">
        <ele>1194.9</ele>
        <time>2022-10-22T13:02:07.430Z</time>
      </trkpt>
      <trkpt lat="47.97902" lon="6.98525">
        <ele>1195.4</ele>
        <time>2022-10-22T13:02:17.133Z</time>
      </trkpt>
      <trkpt lat="47.97892" lon="6.98536">
        <ele>1196.4</ele>
        <time>2022-10-22T13:02:26.813Z</time>
      </trkpt>
      <trkpt lat="47.97886" lon="6.9855">
        <ele>1197.9</ele>
        <time>2022-10-22T13:02:36.000Z</time>
      </trkpt>
      <trkpt lat="47.97883" lon="6.98556">
        <ele>1198.7</ele>
        <time>2022-10-22T13:02:45.550Z</time>
      </trkpt>
      <trkpt lat="47.9788" lon="6.98569">
        <ele>1199.4</ele>
        <time>2022-10-22T13:02:54.968Z</time>
      </trkpt>
      <trkpt lat="47.97878" lon="6.98587">
        <ele>1200.2</ele>
        <time>2022-10-22T13:03:04.169Z</time>
      </trkpt>
      <trkpt lat="47.97873" lon="6.98605">
        <ele>1200.7</ele>
        <time>2022-10-22T13:03:13.790Z</time>
      </trkpt>
      <trkpt lat="47.97867" lon="6.9862">
        <ele>1201.6</ele>
        <time>2022-10-22T13:03:23.000Z</time>
      </trkpt>
      <trkpt lat="47.9786" lon="6.98636">
        <ele>1203</ele>
        <time>2022-10-22T13:03:32.514Z</time>
      </trkpt>
      <trkpt lat="47.97853" lon="6.98651">
        <ele>1203.3</ele>
        <time>2022-10-22T13:03:41.782Z</time>
      </trkpt>
      <trkpt lat="47.97847" lon="6.98666">
        <ele>1203.6</ele>
        <time>2022-10-22T13:03:51.000Z</time>
      </trkpt>
      <trkpt lat="47.97839" lon="6.98682">
        <ele>1204.4</ele>
        <time>2022-10-22T13:04:01.000Z</time>
      </trkpt>
      <trkpt lat="47.97834" lon="6.98696">
        <ele>1205</ele>
        <time>2022-10-22T13:04:10.012Z</time>
      </trkpt>
      <trkpt lat="47.97828" lon="6.98711">
        <ele>1205.8</ele>
        <time>2022-10-22T13:04:19.132Z</time>
      </trkpt>
      <trkpt lat="47.97822" lon="6.98726">
        <ele>1206.6</ele>
        <time>2022-10-22T13:04:28.511Z</time>
      </trkpt>
      <trkpt lat="47.97815" lon="6.98743">
        <ele>1208.1</ele>
        <time>2022-10-22T13:04:38.000Z</time>
      </trkpt>
      <trkpt lat="47.9781" lon="6.98758">
        <ele>1209.3</ele>
        <time>2022-10-22T13:04:47.068Z</time>
      </trkpt>
      <trkpt lat="47.97807" lon="6.98773">
        <ele>1209.8</ele>
        <time>2022-10-22T13:04:56.989Z</time>
      </trkpt>
      <trkpt lat="47.97802" lon="6.98789">
        <ele>1210.8</ele>
        <time>2022-10-22T13:05:06.167Z</time>
      </trkpt>
      <trkpt lat="47.97798" lon="6.98807">
        <ele>1211.6</ele>
        <time>2022-10-22T13:05:16.069Z</time>
      </trkpt>
      <trkpt lat="47.97795" lon="6.98823">
        <ele>1212.4</ele>
        <time>2022-10-22T13:05:26.132Z</time>
      </trkpt>
      <trkpt lat="47.97791" lon="6.9884">
        <ele>1213.2</ele>
        <time>2022-10-22T13:05:35.674Z</time>
      </trkpt>
      <trkpt lat="47.97788" lon="6.98854">
        <ele>1214.3</ele>
        <time>2022-10-22T13:05:45.000Z</time>
      </trkpt>
      <trkpt lat="47.97785" lon="6.9887">
        <ele>1215.2</ele>
        <time>2022-10-22T13:05:55.000Z</time>
      </trkpt>
      <trkpt lat="47.97781" lon="6.98886">
        <ele>1216.7</ele>
        <time>2022-10-22T13:06:05.113Z</time>
      </trkpt>
      <trkpt lat="47.97778" lon="6.98902">
        <ele>1217.4</ele>
        <time>2022-10-22T13:06:14.147Z</time>
      </trkpt>
      <trkpt lat="47.97774" lon="6.98917">
        <ele>1218.3</ele>
        <time>2022-10-22T13:06:24.091Z</time>
      </trkpt>
      <trkpt lat="47.97769" lon="6.98929">
        <ele>1220.4</ele>
        <time>2022-10-22T13:06:33.849Z</time>
      </trkpt>
      <trkpt lat="47.97767" lon="6.98944">
        <ele>1221.5</ele>
        <time>2022-10-22T13:06:42.988Z</time>
      </trkpt>
      <trkpt lat="47.97771" lon="6.9896">
        <ele>1221.6</ele>
        <time>2022-10-22T13:06:52.448Z</time>
      </trkpt>
      <trkpt lat="47.97773" lon="6.98976">
        <ele>1222.9</ele>
        <time>2022-10-22T13:07:02.000Z</time>
      </trkpt>
      <trkpt lat="47.97778" lon="6.98994">
        <ele>1223.2</ele>
        <time>2022-10-22T13:07:11.931Z</time>
      </trkpt>
      <trkpt lat="47.97782" lon="6.99009">
        <ele>1224</ele>
        <time>2022-10-22T13:07:21.000Z</time>
      </trkpt>
      <trkpt lat="47.97781" lon="6.99017">
        <ele>1224.9</ele>
        <time>2022-10-22T13:07:30.910Z</time>
      </trkpt>
      <trkpt lat="47.97786" lon="6.99032">
        <ele>1225.4</ele>
        <time>2022-10-22T13:07:41.000Z</time>
      </trkpt>
      <trkpt lat="47.97794" lon="6.99047">
        <ele>1224.6</ele>
        <time>2022-10-22T13:07:50.770Z</time>
      </trkpt>
      <trkpt lat="47.97812" lon="6.99069">
        <ele>1223.4</ele>
        <time>2022-10-22T13:08:00.000Z</time>
      </trkpt>
      <trkpt lat="47.97816" lon="6.9908">
        <ele>1224.3</ele>
        <time>2022-10-22T13:08:09.487Z</time>
      </trkpt>
      <trkpt lat="47.97817" lon="6.99083">
        <ele>1224.5</ele>
        <time>2022-10-22T13:08:18.533Z</time>
      </trkpt>
      <trkpt lat="47.97828" lon="6.99096">
        <ele>1223.9</ele>
        <time>2022-10-22T13:08:27.786Z</time>
      </trkpt>
      <trkpt lat="47.97838" lon="6.99108">
        <ele>1223.5</ele>
        <time>2022-10-22T13:08:36.968Z</time>
      </trkpt>
      <trkpt lat="47.97848" lon="6.99117">
        <ele>1222.9</ele>
        <time>2022-10-22T13:08:46.090Z</time>
      </trkpt>
      <trkpt lat="47.97857" lon="6.99126">
        <ele>1222.5</ele>
        <time>2022-10-22T13:08:55.109Z</time>
      </trkpt>
      <trkpt lat="47.97863" lon="6.99137">
        <ele>1223.1</ele>
        <time>2022-10-22T13:09:04.131Z</time>
      </trkpt>
      <trkpt lat="47.9787" lon="6.99137">
        <ele>1221.4</ele>
        <time>2022-10-22T13:09:14.000Z</time>
      </trkpt>
      <trkpt lat="47.97869" lon="6.99138">
        <ele>1221.7</ele>
        <time>2022-10-22T13:09:23.797Z</time>
      </trkpt>
      <trkpt lat="47.97871" lon="6.99143">
        <ele>1222.2</ele>
        <time>2022-10-22T13:09:32.849Z</time>
      </trkpt>
      <trkpt lat="47.97878" lon="6.99154">
        <ele>1222.4</ele>
        <time>2022-10-22T13:09:42.149Z</time>
      </trkpt>
      <trkpt lat="47.97888" lon="6.99167">
        <ele>1222.3</ele>
        <time>2022-10-22T13:09:51.513Z</time>
      </trkpt>
      <trkpt lat="47.97896" lon="6.99177">
        <ele>1221</ele>
        <time>2022-10-22T13:10:00.810Z</time>
      </trkpt>
      <trkpt lat="47.97902" lon="6.99195">
        <ele>1221.3</ele>
        <time>2022-10-22T13:10:10.000Z</time>
      </trkpt>
      <trkpt lat="47.97908" lon="6.99211">
        <ele>1221</ele>
        <time>2022-10-22T13:10:19.989Z</time>
      </trkpt>
      <trkpt lat="47.97915" lon="6.99223">
        <ele>1220.3</ele>
        <time>2022-10-22T13:10:29.000Z</time>
      </trkpt>
      <trkpt lat="47.97926" lon="6.99233">
        <ele>1218.6</ele>
        <time>2022-10-22T13:10:38.676Z</time>
      </trkpt>
      <trkpt lat="47.97936" lon="6.99244">
        <ele>1217.2</ele>
        <time>2022-10-22T13:10:47.930Z</time>
      </trkpt>
      <trkpt lat="47.97943" lon="6.99257">
        <ele>1216.6</ele>
        <time>2022-10-22T13:10:57.000Z</time>
      </trkpt>
      <trkpt lat="47.97951" lon="6.9927">
        <ele>1215.2</ele>
        <time>2022-10-22T13:11:07.149Z</time>
      </trkpt>
      <trkpt lat="47.97959" lon="6.99283">
        <ele>1213.8</ele>
        <time>2022-10-22T13:11:16.911Z</time>
      </trkpt>
      <trkpt lat="47.97964" lon="6.99299">
        <ele>1212.5</ele>
        <time>2022-10-22T13:11:26.049Z</time>
      </trkpt>
      <trkpt lat="47.9797" lon="6.99315">
        <ele>1211.2</ele>
        <time>2022-10-22T13:11:35.930Z</time>
      </trkpt>
      <trkpt lat="47.97974" lon="6.99329">
        <ele>1209.7</ele>
        <time>2022-10-22T13:11:44.988Z</time>
      </trkpt>
      <trkpt lat="47.9798" lon="6.99347">
        <ele>1207.9</ele>
        <time>2022-10-22T13:11:54.913Z</time>
      </trkpt>
      <trkpt lat="47.97982" lon="6.99364">
        <ele>1207.3</ele>
        <time>2022-10-22T13:12:04.000Z</time>
      </trkpt>
      <trkpt lat="47.97985" lon="6.99382">
        <ele>1206.3</ele>
        <time>2022-10-22T13:12:13.867Z</time>
      </trkpt>
      <trkpt lat="47.97986" lon="6.99389">
        <ele>1206</ele>
        <time>2022-10-22T13:12:23.000Z</time>
      </trkpt>
      <trkpt lat="47.97988" lon="6.99403">
        <ele>1205.5</ele>
        <time>2022-10-22T13:12:32.307Z</time>
      </trkpt>
      <trkpt lat="47.97991" lon="6.99419">
        <ele>1204.6</ele>
        <time>2022-10-22T13:12:41.491Z</time>
      </trkpt>
      <trkpt lat="47.97996" lon="6.99434">
        <ele>1203.1</ele>
        <time>2022-10-22T13:12:50.629Z</time>
      </trkpt>
      <trkpt lat="47.98005" lon="6.99445">
        <ele>1201.3</ele>
        <time>2022-10-22T13:12:59.652Z</time>
      </trkpt>
      <trkpt lat="47.9801" lon="6.99463">
        <ele>1200</ele>
        <time>2022-10-22T13:13:09.000Z</time>
      </trkpt>
      <trkpt lat="47.98018" lon="6.99479">
        <ele>1198.1</ele>
        <time>2022-10-22T13:13:18.872Z</time>
      </trkpt>
      <trkpt lat="47.98025" lon="6.99493">
        <ele>1196.6</ele>
        <time>2022-10-22T13:13:28.000Z</time>
      </trkpt>
      <trkpt lat="47.98028" lon="6.99509">
        <ele>1195.6</ele>
        <time>2022-10-22T13:13:37.910Z</time>
      </trkpt>
      <trkpt lat="47.98025" lon="6.99517">
        <ele>1195.6</ele>
        <time>2022-10-22T13:13:46.931Z</time>
      </trkpt>
      <trkpt lat="47.98019" lon="6.99523">
        <ele>1195.8</ele>
        <time>2022-10-22T13:13:56.000Z</time>
      </trkpt>
      <trkpt lat="47.98008" lon="6.99528">
        <ele>1196.4</ele>
        <time>2022-10-22T13:14:05.910Z</time>
      </trkpt>
      <trkpt lat="47.98008" lon="6.99517">
        <ele>1197.1</ele>
        <time>2022-10-22T13:14:16.087Z</time>
      </trkpt>
      <trkpt lat="47.97997" lon="6.99522">
        <ele>1197.2</ele>
        <time>2022-10-22T13:14:25.987Z</time>
      </trkpt>
      <trkpt lat="47.97983" lon="6.99515">
        <ele>1197.3</ele>
        <time>2022-10-22T13:14:35.429Z</time>
        <extensions>
          <visugpx:TrkExtension xmlns:visugpx="https://www.visugpx.com/editgpx/">
            <visugpx:node>1</visugpx:node>
            </visugpx:TrkExtension>
        </extensions>
      </trkpt>
      <trkpt lat="47.97975" lon="6.99522">
        <ele>1195.5</ele>
        <time>2022-10-22T13:14:46.000Z</time>
        <extensions>
          <visugpx:TrkExtension xmlns:visugpx="https://www.visugpx.com/editgpx/">
            <visugpx:node>2</visugpx:node>
            </visugpx:TrkExtension>
        </extensions>
      </trkpt>
      <trkpt lat="47.97961" lon="6.99522">
        <ele>1193.4</ele>
        <time>2022-10-22T13:16:39.049Z</time>
        <extensions>
          <visugpx:TrkExtension xmlns:visugpx="https://www.visugpx.com/editgpx/">
            <visugpx:node>3</visugpx:node>
            </visugpx:TrkExtension>
        </extensions>
      </trkpt>
      <trkpt lat="47.97952" lon="6.9952">
        <ele>1192.1</ele>
        <time>2022-10-22T13:16:48.087Z</time>
      </trkpt>
      <trkpt lat="47.97943" lon="6.9952">
        <ele>1190.8</ele>
        <time>2022-10-22T13:16:57.493Z</time>
      </trkpt>
      <trkpt lat="47.97931" lon="6.99521">
        <ele>1189.4</ele>
        <time>2022-10-22T13:17:06.854Z</time>
      </trkpt>
      <trkpt lat="47.97921" lon="6.99523">
        <ele>1187.9</ele>
        <time>2022-10-22T13:17:16.000Z</time>
      </trkpt>
      <trkpt lat="47.97908" lon="6.99524">
        <ele>1186.6</ele>
        <time>2022-10-22T13:17:26.000Z</time>
      </trkpt>
      <trkpt lat="47.97896" lon="6.99525">
        <ele>1185.5</ele>
        <time>2022-10-22T13:17:36.169Z</time>
      </trkpt>
      <trkpt lat="47.9789" lon="6.99529">
        <ele>1183.3</ele>
        <time>2022-10-22T13:17:45.569Z</time>
      </trkpt>
      <trkpt lat="47.97886" lon="6.99533">
        <ele>1180.4</ele>
        <time>2022-10-22T13:17:54.766Z</time>
      </trkpt>
      <trkpt lat="47.97878" lon="6.99532">
        <ele>1179.5</ele>
        <time>2022-10-22T13:18:04.000Z</time>
      </trkpt>
      <trkpt lat="47.97867" lon="6.9953">
        <ele>1178.2</ele>
        <time>2022-10-22T13:18:13.070Z</time>
      </trkpt>
      <trkpt lat="47.97856" lon="6.99527">
        <ele>1176.8</ele>
        <time>2022-10-22T13:18:22.569Z</time>
      </trkpt>
      <trkpt lat="47.97844" lon="6.99526">
        <ele>1174</ele>
        <time>2022-10-22T13:18:31.929Z</time>
      </trkpt>
      <trkpt lat="47.97834" lon="6.99527">
        <ele>1170.7</ele>
        <time>2022-10-22T13:18:41.489Z</time>
      </trkpt>
      <trkpt lat="47.97828" lon="6.99525">
        <ele>1170.1</ele>
        <time>2022-10-22T13:18:50.908Z</time>
      </trkpt>
      <trkpt lat="47.97826" lon="6.99523">
        <ele>1170.3</ele>
        <time>2022-10-22T13:19:00.892Z</time>
      </trkpt>
      <trkpt lat="47.97813" lon="6.99523">
        <ele>1167.5</ele>
        <time>2022-10-22T13:19:09.910Z</time>
      </trkpt>
      <trkpt lat="47.97803" lon="6.99522">
        <ele>1165.6</ele>
        <time>2022-10-22T13:19:19.931Z</time>
      </trkpt>
      <trkpt lat="47.9779" lon="6.99518">
        <ele>1163.7</ele>
        <time>2022-10-22T13:19:30.131Z</time>
      </trkpt>
      <trkpt lat="47.9778" lon="6.99516">
        <ele>1161.8</ele>
        <time>2022-10-22T13:19:39.530Z</time>
      </trkpt>
      <trkpt lat="47.9777" lon="6.99514">
        <ele>1160.6</ele>
        <time>2022-10-22T13:19:50.049Z</time>
      </trkpt>
      <trkpt lat="47.97758" lon="6.99511">
        <ele>1159.2</ele>
        <time>2022-10-22T13:19:59.992Z</time>
      </trkpt>
      <trkpt lat="47.97746" lon="6.9951">
        <ele>1157.2</ele>
        <time>2022-10-22T13:20:10.129Z</time>
      </trkpt>
      <trkpt lat="47.97735" lon="6.99506">
        <ele>1156.4</ele>
        <time>2022-10-22T13:20:19.630Z</time>
      </trkpt>
      <trkpt lat="47.97722" lon="6.99503">
        <ele>1155.1</ele>
        <time>2022-10-22T13:20:29.000Z</time>
      </trkpt>
      <trkpt lat="47.97712" lon="6.995">
        <ele>1154.7</ele>
        <time>2022-10-22T13:20:38.053Z</time>
      </trkpt>
      <trkpt lat="47.97709" lon="6.995">
        <ele>1154.1</ele>
        <time>2022-10-22T13:20:48.128Z</time>
      </trkpt>
      <trkpt lat="47.97706" lon="6.99499">
        <ele>1153.9</ele>
        <time>2022-10-22T13:20:58.000Z</time>
      </trkpt>
      <trkpt lat="47.97702" lon="6.99495">
        <ele>1154.5</ele>
        <time>2022-10-22T13:21:07.968Z</time>
      </trkpt>
      <trkpt lat="47.97689" lon="6.9949">
        <ele>1153.7</ele>
        <time>2022-10-22T13:21:17.870Z</time>
      </trkpt>
      <trkpt lat="47.97677" lon="6.99485">
        <ele>1153.5</ele>
        <time>2022-10-22T13:21:26.989Z</time>
      </trkpt>
      <trkpt lat="47.97665" lon="6.99482">
        <ele>1152.7</ele>
        <time>2022-10-22T13:21:36.449Z</time>
      </trkpt>
      <trkpt lat="47.97659" lon="6.9948">
        <ele>1152.8</ele>
        <time>2022-10-22T13:21:45.534Z</time>
      </trkpt>
      <trkpt lat="47.9765" lon="6.9948">
        <ele>1152.2</ele>
        <time>2022-10-22T13:21:54.874Z</time>
      </trkpt>
      <trkpt lat="47.97639" lon="6.99476">
        <ele>1152.1</ele>
        <time>2022-10-22T13:22:03.890Z</time>
      </trkpt>
      <trkpt lat="47.97627" lon="6.99475">
        <ele>1151</ele>
        <time>2022-10-22T13:22:13.109Z</time>
      </trkpt>
      <trkpt lat="47.97612" lon="6.99474">
        <ele>1149.7</ele>
        <time>2022-10-22T13:22:23.000Z</time>
      </trkpt>
      <trkpt lat="47.976" lon="6.99473">
        <ele>1149.8</ele>
        <time>2022-10-22T13:22:32.029Z</time>
      </trkpt>
      <trkpt lat="47.97586" lon="6.99475">
        <ele>1149.4</ele>
        <time>2022-10-22T13:22:41.970Z</time>
      </trkpt>
      <trkpt lat="47.97575" lon="6.99474">
        <ele>1149.4</ele>
        <time>2022-10-22T13:22:51.000Z</time>
      </trkpt>
      <trkpt lat="47.97578" lon="6.99477">
        <ele>1148.7</ele>
        <time>2022-10-22T13:23:01.000Z</time>
      </trkpt>
      <trkpt lat="47.97577" lon="6.99476">
        <ele>1148.8</ele>
        <time>2022-10-22T13:23:12.000Z</time>
      </trkpt>
      <trkpt lat="47.97568" lon="6.99479">
        <ele>1147.6</ele>
        <time>2022-10-22T13:23:21.093Z</time>
      </trkpt>
      <trkpt lat="47.97555" lon="6.99477">
        <ele>1147.7</ele>
        <time>2022-10-22T13:23:30.708Z</time>
      </trkpt>
      <trkpt lat="47.97543" lon="6.99477">
        <ele>1146.8</ele>
        <time>2022-10-22T13:23:39.790Z</time>
      </trkpt>
      <trkpt lat="47.97532" lon="6.99479">
        <ele>1145.6</ele>
        <time>2022-10-22T13:23:49.000Z</time>
      </trkpt>
      <trkpt lat="47.9752" lon="6.99481">
        <ele>1145.1</ele>
        <time>2022-10-22T13:23:58.149Z</time>
      </trkpt>
      <trkpt lat="47.9751" lon="6.99486">
        <ele>1143.9</ele>
        <time>2022-10-22T13:24:07.852Z</time>
      </trkpt>
      <trkpt lat="47.97496" lon="6.9949">
        <ele>1143.2</ele>
        <time>2022-10-22T13:24:18.010Z</time>
      </trkpt>
      <trkpt lat="47.97486" lon="6.99496">
        <ele>1142.5</ele>
        <time>2022-10-22T13:24:27.671Z</time>
      </trkpt>
      <trkpt lat="47.97483" lon="6.995">
        <ele>1141.7</ele>
        <time>2022-10-22T13:24:37.000Z</time>
      </trkpt>
      <trkpt lat="47.97476" lon="6.99507">
        <ele>1140.8</ele>
        <time>2022-10-22T13:24:46.855Z</time>
      </trkpt>
      <trkpt lat="47.97463" lon="6.99512">
        <ele>1140.5</ele>
        <time>2022-10-22T13:24:56.000Z</time>
      </trkpt>
      <trkpt lat="47.97454" lon="6.99516">
        <ele>1140</ele>
        <time>2022-10-22T13:25:06.000Z</time>
      </trkpt>
      <trkpt lat="47.9744" lon="6.99515">
        <ele>1140.9</ele>
        <time>2022-10-22T13:25:15.591Z</time>
      </trkpt>
      <trkpt lat="47.97431" lon="6.99519">
        <ele>1140.3</ele>
        <time>2022-10-22T13:25:25.109Z</time>
      </trkpt>
      <trkpt lat="47.97426" lon="6.99517">
        <ele>1140.7</ele>
        <time>2022-10-22T13:25:35.000Z</time>
      </trkpt>
      <trkpt lat="47.97421" lon="6.99516">
        <ele>1141.1</ele>
        <time>2022-10-22T13:25:45.000Z</time>
      </trkpt>
      <trkpt lat="47.97415" lon="6.99513">
        <ele>1141.9</ele>
        <time>2022-10-22T13:25:55.000Z</time>
      </trkpt>
      <trkpt lat="47.97407" lon="6.99513">
        <ele>1142.5</ele>
        <time>2022-10-22T13:26:04.789Z</time>
      </trkpt>
      <trkpt lat="47.97401" lon="6.99511">
        <ele>1143.1</ele>
        <time>2022-10-22T13:26:14.000Z</time>
      </trkpt>
      <trkpt lat="47.97393" lon="6.99513">
        <ele>1143.4</ele>
        <time>2022-10-22T13:26:23.129Z</time>
      </trkpt>
      <trkpt lat="47.97393" lon="6.99515">
        <ele>1143.1</ele>
        <time>2022-10-22T13:26:34.000Z</time>
      </trkpt>
      <trkpt lat="47.97387" lon="6.99513">
        <ele>1144.1</ele>
        <time>2022-10-22T13:26:43.628Z</time>
      </trkpt>
      <trkpt lat="47.97382" lon="6.99534">
        <ele>1141.9</ele>
        <time>2022-10-22T13:26:52.928Z</time>
      </trkpt>
      <trkpt lat="47.97383" lon="6.99552">
        <ele>1138.9</ele>
        <time>2022-10-22T13:27:01.930Z</time>
      </trkpt>
      <trkpt lat="47.97386" lon="6.9956">
        <ele>1136.9</ele>
        <time>2022-10-22T13:27:12.000Z</time>
      </trkpt>
      <trkpt lat="47.97388" lon="6.99561">
        <ele>1136.3</ele>
        <time>2022-10-22T13:27:25.016Z</time>
      </trkpt>
      <trkpt lat="47.97385" lon="6.99566">
        <ele>1135.9</ele>
        <time>2022-10-22T13:27:35.000Z</time>
      </trkpt>
      <trkpt lat="47.97361" lon="6.99584">
        <ele>1136.8</ele>
        <time>2022-10-22T13:27:44.774Z</time>
      </trkpt>
      <trkpt lat="47.97355" lon="6.99585">
        <ele>1136.9</ele>
        <time>2022-10-22T13:27:53.812Z</time>
      </trkpt>
      <trkpt lat="47.97349" lon="6.99589">
        <ele>1135.9</ele>
        <time>2022-10-22T13:28:03.000Z</time>
      </trkpt>
      <trkpt lat="47.97351" lon="6.99582">
        <ele>1137.8</ele>
        <time>2022-10-22T13:28:13.000Z</time>
      </trkpt>
      <trkpt lat="47.97346" lon="6.99576">
        <ele>1139.5</ele>
        <time>2022-10-22T13:28:22.528Z</time>
      </trkpt>
      <trkpt lat="47.97339" lon="6.99577">
        <ele>1139.5</ele>
        <time>2022-10-22T13:28:32.000Z</time>
      </trkpt>
      <trkpt lat="47.97343" lon="6.9958">
        <ele>1138.4</ele>
        <time>2022-10-22T13:28:42.000Z</time>
      </trkpt>
      <trkpt lat="47.97344" lon="6.99583">
        <ele>1137.7</ele>
        <time>2022-10-22T13:29:04.000Z</time>
      </trkpt>
      <trkpt lat="47.97346" lon="6.99595">
        <ele>1134.5</ele>
        <time>2022-10-22T13:29:13.051Z</time>
      </trkpt>
      <trkpt lat="47.97344" lon="6.99608">
        <ele>1131.1</ele>
        <time>2022-10-22T13:29:22.108Z</time>
      </trkpt>
      <trkpt lat="47.97329" lon="6.99609">
        <ele>1131.9</ele>
        <time>2022-10-22T13:29:31.788Z</time>
      </trkpt>
      <trkpt lat="47.97323" lon="6.99616">
        <ele>1130.1</ele>
        <time>2022-10-22T13:29:42.090Z</time>
      </trkpt>
      <trkpt lat="47.97324" lon="6.99621">
        <ele>1128.6</ele>
        <time>2022-10-22T13:29:52.000Z</time>
      </trkpt>
      <trkpt lat="47.97321" lon="6.99624">
        <ele>1127.6</ele>
        <time>2022-10-22T13:30:01.209Z</time>
      </trkpt>
      <trkpt lat="47.97316" lon="6.9962">
        <ele>1129.3</ele>
        <time>2022-10-22T13:30:10.793Z</time>
      </trkpt>
      <trkpt lat="47.97316" lon="6.99622">
        <ele>1128.7</ele>
        <time>2022-10-22T13:30:19.871Z</time>
      </trkpt>
      <trkpt lat="47.97314" lon="6.99624">
        <ele>1128.2</ele>
        <time>2022-10-22T13:30:29.071Z</time>
      </trkpt>
      <trkpt lat="47.97311" lon="6.99628">
        <ele>1127.2</ele>
        <time>2022-10-22T13:30:39.109Z</time>
      </trkpt>
      <trkpt lat="47.97302" lon="6.99631">
        <ele>1127.2</ele>
        <time>2022-10-22T13:30:48.992Z</time>
      </trkpt>
      <trkpt lat="47.97301" lon="6.99639">
        <ele>1124.9</ele>
        <time>2022-10-22T13:30:58.593Z</time>
      </trkpt>
      <trkpt lat="47.97296" lon="6.99643">
        <ele>1124.8</ele>
        <time>2022-10-22T13:31:07.609Z</time>
      </trkpt>
      <trkpt lat="47.97288" lon="6.99643">
        <ele>1126.3</ele>
        <time>2022-10-22T13:31:17.050Z</time>
      </trkpt>
      <trkpt lat="47.97285" lon="6.99647">
        <ele>1126.3</ele>
        <time>2022-10-22T13:31:27.000Z</time>
      </trkpt>
      <trkpt lat="47.97281" lon="6.99651">
        <ele>1126.2</ele>
        <time>2022-10-22T13:31:37.000Z</time>
      </trkpt>
      <trkpt lat="47.97279" lon="6.99655">
        <ele>1125.9</ele>
        <time>2022-10-22T13:31:47.000Z</time>
      </trkpt>
      <trkpt lat="47.97279" lon="6.99653">
        <ele>1126.2</ele>
        <time>2022-10-22T13:32:45.000Z</time>
      </trkpt>
      <trkpt lat="47.97274" lon="6.99653">
        <ele>1127.6</ele>
        <time>2022-10-22T13:32:55.129Z</time>
      </trkpt>
      <trkpt lat="47.97268" lon="6.99664">
        <ele>1127.4</ele>
        <time>2022-10-22T13:33:05.000Z</time>
      </trkpt>
      <trkpt lat="47.97271" lon="6.99664">
        <ele>1126.5</ele>
        <time>2022-10-22T13:33:15.000Z</time>
      </trkpt>
      <trkpt lat="47.97267" lon="6.99672">
        <ele>1126</ele>
        <time>2022-10-22T13:33:24.648Z</time>
      </trkpt>
      <trkpt lat="47.97255" lon="6.99686">
        <ele>1125.7</ele>
        <time>2022-10-22T13:33:33.834Z</time>
      </trkpt>
      <trkpt lat="47.97243" lon="6.99686">
        <ele>1127.9</ele>
        <time>2022-10-22T13:33:44.009Z</time>
      </trkpt>
      <trkpt lat="47.97242" lon="6.99695">
        <ele>1126</ele>
        <time>2022-10-22T13:33:54.000Z</time>
      </trkpt>
      <trkpt lat="47.97237" lon="6.99707">
        <ele>1125.6</ele>
        <time>2022-10-22T13:34:04.000Z</time>
      </trkpt>
      <trkpt lat="47.97231" lon="6.99711">
        <ele>1126.5</ele>
        <time>2022-10-22T13:34:13.951Z</time>
      </trkpt>
      <trkpt lat="47.97227" lon="6.99724">
        <ele>1125.5</ele>
        <time>2022-10-22T13:34:24.149Z</time>
      </trkpt>
      <trkpt lat="47.97223" lon="6.99735">
        <ele>1124.9</ele>
        <time>2022-10-22T13:34:34.000Z</time>
      </trkpt>
      <trkpt lat="47.97227" lon="6.99744">
        <ele>1122.9</ele>
        <time>2022-10-22T13:34:44.000Z</time>
      </trkpt>
      <trkpt lat="47.97229" lon="6.99746">
        <ele>1122.3</ele>
        <time>2022-10-22T13:34:54.000Z</time>
      </trkpt>
      <trkpt lat="47.97225" lon="6.99743">
        <ele>1123.4</ele>
        <time>2022-10-22T13:35:03.052Z</time>
      </trkpt>
      <trkpt lat="47.97217" lon="6.99757">
        <ele>1122.4</ele>
        <time>2022-10-22T13:35:12.070Z</time>
      </trkpt>
      <trkpt lat="47.97209" lon="6.99762">
        <ele>1122.7</ele>
        <time>2022-10-22T13:35:22.071Z</time>
      </trkpt>
      <trkpt lat="47.97202" lon="6.99767">
        <ele>1122.4</ele>
        <time>2022-10-22T13:35:31.530Z</time>
      </trkpt>
      <trkpt lat="47.97192" lon="6.99772">
        <ele>1122.7</ele>
        <time>2022-10-22T13:35:40.649Z</time>
      </trkpt>
      <trkpt lat="47.97184" lon="6.99776">
        <ele>1123</ele>
        <time>2022-10-22T13:35:50.000Z</time>
      </trkpt>
      <trkpt lat="47.97173" lon="6.99781">
        <ele>1123.3</ele>
        <time>2022-10-22T13:35:59.910Z</time>
      </trkpt>
      <trkpt lat="47.97166" lon="6.99783">
        <ele>1124</ele>
        <time>2022-10-22T13:36:09.650Z</time>
      </trkpt>
      <trkpt lat="47.97163" lon="6.99783">
        <ele>1124.6</ele>
        <time>2022-10-22T13:36:19.091Z</time>
      </trkpt>
      <trkpt lat="47.97154" lon="6.99783">
        <ele>1125.7</ele>
        <time>2022-10-22T13:36:28.133Z</time>
      </trkpt>
      <trkpt lat="47.97146" lon="6.99787">
        <ele>1126.1</ele>
        <time>2022-10-22T13:36:38.000Z</time>
      </trkpt>
      <trkpt lat="47.97141" lon="6.99787">
        <ele>1126.7</ele>
        <time>2022-10-22T13:36:47.649Z</time>
      </trkpt>
      <trkpt lat="47.97137" lon="6.99791">
        <ele>1126.4</ele>
        <time>2022-10-22T13:36:56.711Z</time>
      </trkpt>
      <trkpt lat="47.97136" lon="6.99795">
        <ele>1125.8</ele>
        <time>2022-10-22T13:37:06.000Z</time>
      </trkpt>
      <trkpt lat="47.97133" lon="6.99799">
        <ele>1125.4</ele>
        <time>2022-10-22T13:37:16.092Z</time>
      </trkpt>
      <trkpt lat="47.97125" lon="6.99804">
        <ele>1125.6</ele>
        <time>2022-10-22T13:37:25.612Z</time>
      </trkpt>
      <trkpt lat="47.9712" lon="6.99813">
        <ele>1124.3</ele>
        <time>2022-10-22T13:37:35.012Z</time>
      </trkpt>
      <trkpt lat="47.97119" lon="6.99829">
        <ele>1121.2</ele>
        <time>2022-10-22T13:37:45.000Z</time>
      </trkpt>
      <trkpt lat="47.97114" lon="6.99844">
        <ele>1119.6</ele>
        <time>2022-10-22T13:37:55.089Z</time>
      </trkpt>
      <trkpt lat="47.97117" lon="6.99847">
        <ele>1118.9</ele>
        <time>2022-10-22T13:38:05.000Z</time>
      </trkpt>
      <trkpt lat="47.97116" lon="6.99847">
        <ele>1119</ele>
        <time>2022-10-22T13:38:14.713Z</time>
      </trkpt>
      <trkpt lat="47.97115" lon="6.99859">
        <ele>1117.7</ele>
        <time>2022-10-22T13:38:23.829Z</time>
      </trkpt>
      <trkpt lat="47.9712" lon="6.99874">
        <ele>1115.2</ele>
        <time>2022-10-22T13:38:33.570Z</time>
      </trkpt>
      <trkpt lat="47.97123" lon="6.99875">
        <ele>1114.7</ele>
        <time>2022-10-22T13:38:43.000Z</time>
      </trkpt>
      <trkpt lat="47.97122" lon="6.99873">
        <ele>1115.1</ele>
        <time>2022-10-22T13:38:53.000Z</time>
      </trkpt>
      <trkpt lat="47.97122" lon="6.99876">
        <ele>1114.7</ele>
        <time>2022-10-22T13:39:43.000Z</time>
      </trkpt>
      <trkpt lat="47.97115" lon="6.99881">
        <ele>1114.8</ele>
        <time>2022-10-22T13:39:52.112Z</time>
      </trkpt>
      <trkpt lat="47.97105" lon="6.99879">
        <ele>1115.7</ele>
        <time>2022-10-22T13:40:02.110Z</time>
      </trkpt>
      <trkpt lat="47.97096" lon="6.99887">
        <ele>1115.3</ele>
        <time>2022-10-22T13:40:11.789Z</time>
      </trkpt>
      <trkpt lat="47.97093" lon="6.999">
        <ele>1114.5</ele>
        <time>2022-10-22T13:40:21.000Z</time>
      </trkpt>
      <trkpt lat="47.97084" lon="6.99904">
        <ele>1114.9</ele>
        <time>2022-10-22T13:40:30.574Z</time>
      </trkpt>
      <trkpt lat="47.97085" lon="6.99905">
        <ele>1114.7</ele>
        <time>2022-10-22T13:40:40.000Z</time>
      </trkpt>
      <trkpt lat="47.97086" lon="6.99906">
        <ele>1114.6</ele>
        <time>2022-10-22T13:40:50.000Z</time>
      </trkpt>
      <trkpt lat="47.97087" lon="6.99907">
        <ele>1114.5</ele>
        <time>2022-10-22T13:41:16.000Z</time>
      </trkpt>
      <trkpt lat="47.97085" lon="6.99906">
        <ele>1114.7</ele>
        <time>2022-10-22T13:41:26.000Z</time>
      </trkpt>
      <trkpt lat="47.97084" lon="6.99908">
        <ele>1114.6</ele>
        <time>2022-10-22T13:41:37.000Z</time>
      </trkpt>
      <trkpt lat="47.97081" lon="6.99914">
        <ele>1114.1</ele>
        <time>2022-10-22T13:41:47.000Z</time>
      </trkpt>
      <trkpt lat="47.9709" lon="6.99916">
        <ele>1113.6</ele>
        <time>2022-10-22T13:41:56.608Z</time>
      </trkpt>
      <trkpt lat="47.97082" lon="6.99921">
        <ele>1112.7</ele>
        <time>2022-10-22T13:42:05.769Z</time>
      </trkpt>
      <trkpt lat="47.97068" lon="6.9992">
        <ele>1112.7</ele>
        <time>2022-10-22T13:42:15.069Z</time>
      </trkpt>
      <trkpt lat="47.97061" lon="6.99924">
        <ele>1111.1</ele>
        <time>2022-10-22T13:42:24.468Z</time>
      </trkpt>
      <trkpt lat="47.97055" lon="6.99923">
        <ele>1111.2</ele>
        <time>2022-10-22T13:42:33.768Z</time>
      </trkpt>
      <trkpt lat="47.97046" lon="6.99921">
        <ele>1111.7</ele>
        <time>2022-10-22T13:42:43.000Z</time>
      </trkpt>
      <trkpt lat="47.97039" lon="6.9992">
        <ele>1111.9</ele>
        <time>2022-10-22T13:42:53.000Z</time>
      </trkpt>
      <trkpt lat="47.97035" lon="6.99918">
        <ele>1112.1</ele>
        <time>2022-10-22T13:43:03.000Z</time>
      </trkpt>
      <trkpt lat="47.9704" lon="6.99927">
        <ele>1110.8</ele>
        <time>2022-10-22T13:43:12.530Z</time>
      </trkpt>
      <trkpt lat="47.97042" lon="6.99937">
        <ele>1108.7</ele>
        <time>2022-10-22T13:43:21.790Z</time>
      </trkpt>
      <trkpt lat="47.97039" lon="6.99952">
        <ele>1106.9</ele>
        <time>2022-10-22T13:43:31.000Z</time>
      </trkpt>
      <trkpt lat="47.97037" lon="6.9996">
        <ele>1106.5</ele>
        <time>2022-10-22T13:43:40.791Z</time>
      </trkpt>
      <trkpt lat="47.97029" lon="6.99971">
        <ele>1107</ele>
        <time>2022-10-22T13:43:50.000Z</time>
      </trkpt>
      <trkpt lat="47.9702" lon="6.99987">
        <ele>1107.5</ele>
        <time>2022-10-22T13:43:59.868Z</time>
      </trkpt>
      <trkpt lat="47.97014" lon="6.99994">
        <ele>1107.7</ele>
        <time>2022-10-22T13:44:09.000Z</time>
      </trkpt>
      <trkpt lat="47.97009" lon="7.00003">
        <ele>1107.4</ele>
        <time>2022-10-22T13:44:18.791Z</time>
      </trkpt>
      <trkpt lat="47.96998" lon="7.00016">
        <ele>1107.7</ele>
        <time>2022-10-22T13:44:28.951Z</time>
      </trkpt>
      <trkpt lat="47.96995" lon="7.00032">
        <ele>1106.5</ele>
        <time>2022-10-22T13:44:38.000Z</time>
      </trkpt>
      <trkpt lat="47.96988" lon="7.00048">
        <ele>1105.8</ele>
        <time>2022-10-22T13:44:47.950Z</time>
      </trkpt>
      <trkpt lat="47.9698" lon="7.00064">
        <ele>1104.8</ele>
        <time>2022-10-22T13:44:58.170Z</time>
      </trkpt>
      <trkpt lat="47.96971" lon="7.00076">
        <ele>1104.3</ele>
        <time>2022-10-22T13:45:07.990Z</time>
      </trkpt>
      <trkpt lat="47.96966" lon="7.0009">
        <ele>1101.9</ele>
        <time>2022-10-22T13:45:17.000Z</time>
      </trkpt>
      <trkpt lat="47.96958" lon="7.00099">
        <ele>1101.7</ele>
        <time>2022-10-22T13:45:26.589Z</time>
      </trkpt>
      <trkpt lat="47.9695" lon="7.00107">
        <ele>1101.7</ele>
        <time>2022-10-22T13:45:35.790Z</time>
      </trkpt>
      <trkpt lat="47.9694" lon="7.00121">
        <ele>1099.6</ele>
        <time>2022-10-22T13:45:45.010Z</time>
      </trkpt>
      <trkpt lat="47.96928" lon="7.00128">
        <ele>1098.9</ele>
        <time>2022-10-22T13:45:54.528Z</time>
      </trkpt>
      <trkpt lat="47.96919" lon="7.00129">
        <ele>1099.6</ele>
        <time>2022-10-22T13:46:03.791Z</time>
      </trkpt>
      <trkpt lat="47.96908" lon="7.00131">
        <ele>1099.7</ele>
        <time>2022-10-22T13:46:13.000Z</time>
      </trkpt>
      <trkpt lat="47.96896" lon="7.00139">
        <ele>1097.6</ele>
        <time>2022-10-22T13:46:22.295Z</time>
      </trkpt>
      <trkpt lat="47.96883" lon="7.00145">
        <ele>1096</ele>
        <time>2022-10-22T13:46:31.850Z</time>
      </trkpt>
      <trkpt lat="47.96871" lon="7.00145">
        <ele>1095.7</ele>
        <time>2022-10-22T13:46:41.000Z</time>
      </trkpt>
      <trkpt lat="47.96867" lon="7.00141">
        <ele>1096.6</ele>
        <time>2022-10-22T13:46:50.071Z</time>
      </trkpt>
      <trkpt lat="47.9685" lon="7.0014">
        <ele>1096.8</ele>
        <time>2022-10-22T13:47:00.000Z</time>
      </trkpt>
      <trkpt lat="47.96836" lon="7.00137">
        <ele>1097.4</ele>
        <time>2022-10-22T13:47:09.171Z</time>
      </trkpt>
      <trkpt lat="47.9683" lon="7.00142">
        <ele>1096.2</ele>
        <time>2022-10-22T13:47:19.071Z</time>
      </trkpt>
      <trkpt lat="47.96822" lon="7.00143">
        <ele>1095.9</ele>
        <time>2022-10-22T13:47:29.000Z</time>
      </trkpt>
      <trkpt lat="47.96814" lon="7.0014">
        <ele>1096.8</ele>
        <time>2022-10-22T13:47:38.370Z</time>
      </trkpt>
      <trkpt lat="47.96802" lon="7.00147">
        <ele>1095.2</ele>
        <time>2022-10-22T13:47:47.690Z</time>
      </trkpt>
      <trkpt lat="47.96795" lon="7.00153">
        <ele>1093.9</ele>
        <time>2022-10-22T13:47:56.975Z</time>
      </trkpt>
      <trkpt lat="47.96793" lon="7.00154">
        <ele>1093.7</ele>
        <time>2022-10-22T13:48:06.000Z</time>
      </trkpt>
      <trkpt lat="47.96795" lon="7.00155">
        <ele>1093.3</ele>
        <time>2022-10-22T13:48:16.000Z</time>
      </trkpt>
      <trkpt lat="47.96793" lon="7.00152">
        <ele>1094.2</ele>
        <time>2022-10-22T13:48:26.000Z</time>
      </trkpt>
      <trkpt lat="47.9678" lon="7.00145">
        <ele>1096.3</ele>
        <time>2022-10-22T13:48:35.694Z</time>
      </trkpt>
      <trkpt lat="47.96768" lon="7.00141">
        <ele>1097.8</ele>
        <time>2022-10-22T13:48:45.000Z</time>
      </trkpt>
      <trkpt lat="47.96763" lon="7.00144">
        <ele>1097.3</ele>
        <time>2022-10-22T13:48:55.000Z</time>
      </trkpt>
      <trkpt lat="47.96755" lon="7.00138">
        <ele>1099.2</ele>
        <time>2022-10-22T13:49:04.573Z</time>
      </trkpt>
      <trkpt lat="47.96743" lon="7.0014">
        <ele>1099.2</ele>
        <time>2022-10-22T13:49:14.000Z</time>
      </trkpt>
      <trkpt lat="47.96732" lon="7.00136">
        <ele>1101.1</ele>
        <time>2022-10-22T13:49:24.069Z</time>
      </trkpt>
      <trkpt lat="47.96721" lon="7.00133">
        <ele>1102.6</ele>
        <time>2022-10-22T13:49:33.689Z</time>
      </trkpt>
      <trkpt lat="47.96713" lon="7.00135">
        <ele>1103</ele>
        <time>2022-10-22T13:49:42.810Z</time>
      </trkpt>
      <trkpt lat="47.96707" lon="7.00128">
        <ele>1105.2</ele>
        <time>2022-10-22T13:49:52.000Z</time>
      </trkpt>
      <trkpt lat="47.96703" lon="7.00132">
        <ele>1104.8</ele>
        <time>2022-10-22T13:50:01.132Z</time>
      </trkpt>
      <trkpt lat="47.96689" lon="7.00134">
        <ele>1106.2</ele>
        <time>2022-10-22T13:50:11.000Z</time>
      </trkpt>
      <trkpt lat="47.96679" lon="7.00141">
        <ele>1106.9</ele>
        <time>2022-10-22T13:50:20.452Z</time>
      </trkpt>
      <trkpt lat="47.96668" lon="7.0014">
        <ele>1109.4</ele>
        <time>2022-10-22T13:50:29.931Z</time>
      </trkpt>
      <trkpt lat="47.96658" lon="7.00144">
        <ele>1111.6</ele>
        <time>2022-10-22T13:50:39.000Z</time>
      </trkpt>
      <trkpt lat="47.96648" lon="7.00149">
        <ele>1113.3</ele>
        <time>2022-10-22T13:50:48.708Z</time>
      </trkpt>
      <trkpt lat="47.9664" lon="7.00157">
        <ele>1114</ele>
        <time>2022-10-22T13:50:58.000Z</time>
      </trkpt>
      <trkpt lat="47.9663" lon="7.00161">
        <ele>1115.6</ele>
        <time>2022-10-22T13:51:07.832Z</time>
      </trkpt>
      <trkpt lat="47.96621" lon="7.00168">
        <ele>1116.9</ele>
        <time>2022-10-22T13:51:16.989Z</time>
      </trkpt>
      <trkpt lat="47.96612" lon="7.00173">
        <ele>1118.8</ele>
        <time>2022-10-22T13:51:26.000Z</time>
      </trkpt>
      <trkpt lat="47.96605" lon="7.00173">
        <ele>1119.9</ele>
        <time>2022-10-22T13:51:35.907Z</time>
      </trkpt>
      <trkpt lat="47.96598" lon="7.0018">
        <ele>1119.6</ele>
        <time>2022-10-22T13:51:45.000Z</time>
      </trkpt>
      <trkpt lat="47.96585" lon="7.00179">
        <ele>1121.6</ele>
        <time>2022-10-22T13:51:54.995Z</time>
      </trkpt>
      <trkpt lat="47.96578" lon="7.00177">
        <ele>1123.3</ele>
        <time>2022-10-22T13:52:04.000Z</time>
      </trkpt>
      <trkpt lat="47.96579" lon="7.00181">
        <ele>1122</ele>
        <time>2022-10-22T13:52:14.000Z</time>
      </trkpt>
      <trkpt lat="47.9657" lon="7.00176">
        <ele>1124.6</ele>
        <time>2022-10-22T13:52:24.067Z</time>
      </trkpt>
      <trkpt lat="47.96554" lon="7.0017">
        <ele>1129.3</ele>
        <time>2022-10-22T13:52:33.069Z</time>
      </trkpt>
      <trkpt lat="47.96542" lon="7.0017">
        <ele>1133.5</ele>
        <time>2022-10-22T13:52:42.072Z</time>
      </trkpt>
      <trkpt lat="47.96534" lon="7.00181">
        <ele>1133.3</ele>
        <time>2022-10-22T13:52:51.828Z</time>
      </trkpt>
      <trkpt lat="47.96527" lon="7.00195">
        <ele>1133.3</ele>
        <time>2022-10-22T13:53:01.000Z</time>
      </trkpt>
      <trkpt lat="47.96523" lon="7.00208">
        <ele>1133.4</ele>
        <time>2022-10-22T13:53:10.170Z</time>
      </trkpt>
      <trkpt lat="47.96519" lon="7.00221">
        <ele>1133.2</ele>
        <time>2022-10-22T13:53:19.572Z</time>
      </trkpt>
      <trkpt lat="47.96514" lon="7.00233">
        <ele>1133.6</ele>
        <time>2022-10-22T13:53:28.971Z</time>
      </trkpt>
      <trkpt lat="47.96509" lon="7.00244">
        <ele>1133.5</ele>
        <time>2022-10-22T13:53:38.108Z</time>
      </trkpt>
      <trkpt lat="47.96503" lon="7.00258">
        <ele>1134.2</ele>
        <time>2022-10-22T13:53:47.969Z</time>
      </trkpt>
      <trkpt lat="47.96505" lon="7.00276">
        <ele>1132.9</ele>
        <time>2022-10-22T13:53:58.093Z</time>
      </trkpt>
      <trkpt lat="47.96509" lon="7.00298">
        <ele>1133.2</ele>
        <time>2022-10-22T13:54:08.108Z</time>
      </trkpt>
      <trkpt lat="47.96511" lon="7.00311">
        <ele>1134.2</ele>
        <time>2022-10-22T13:54:17.110Z</time>
      </trkpt>
      <trkpt lat="47.96514" lon="7.00324">
        <ele>1135.5</ele>
        <time>2022-10-22T13:54:27.031Z</time>
      </trkpt>
      <trkpt lat="47.96512" lon="7.00336">
        <ele>1137.9</ele>
        <time>2022-10-22T13:54:36.048Z</time>
      </trkpt>
      <trkpt lat="47.96509" lon="7.00349">
        <ele>1140.1</ele>
        <time>2022-10-22T13:54:45.910Z</time>
      </trkpt>
      <trkpt lat="47.96507" lon="7.00364">
        <ele>1142</ele>
        <time>2022-10-22T13:54:55.590Z</time>
      </trkpt>
      <trkpt lat="47.96506" lon="7.00382">
        <ele>1143.7</ele>
        <time>2022-10-22T13:55:05.000Z</time>
      </trkpt>
      <trkpt lat="47.96504" lon="7.00396">
        <ele>1145</ele>
        <time>2022-10-22T13:55:14.829Z</time>
      </trkpt>
      <trkpt lat="47.96502" lon="7.00409">
        <ele>1146.3</ele>
        <time>2022-10-22T13:55:24.549Z</time>
      </trkpt>
      <trkpt lat="47.96502" lon="7.00423">
        <ele>1146.6</ele>
        <time>2022-10-22T13:55:33.693Z</time>
      </trkpt>
      <trkpt lat="47.965" lon="7.00436">
        <ele>1147.6</ele>
        <time>2022-10-22T13:55:43.000Z</time>
      </trkpt>
      <trkpt lat="47.965" lon="7.00453">
        <ele>1148.8</ele>
        <time>2022-10-22T13:55:53.000Z</time>
      </trkpt>
      <trkpt lat="47.96498" lon="7.00469">
        <ele>1150.8</ele>
        <time>2022-10-22T13:56:02.531Z</time>
      </trkpt>
      <trkpt lat="47.96495" lon="7.0048">
        <ele>1152.3</ele>
        <time>2022-10-22T13:56:11.768Z</time>
      </trkpt>
      <trkpt lat="47.96493" lon="7.00495">
        <ele>1153.4</ele>
        <time>2022-10-22T13:56:21.000Z</time>
      </trkpt>
      <trkpt lat="47.96492" lon="7.00511">
        <ele>1154.2</ele>
        <time>2022-10-22T13:56:30.088Z</time>
      </trkpt>
      <trkpt lat="47.96489" lon="7.00527">
        <ele>1155.2</ele>
        <time>2022-10-22T13:56:40.110Z</time>
      </trkpt>
      <trkpt lat="47.96482" lon="7.00539">
        <ele>1158.2</ele>
        <time>2022-10-22T13:56:49.871Z</time>
      </trkpt>
      <trkpt lat="47.96477" lon="7.00553">
        <ele>1159.6</ele>
        <time>2022-10-22T13:56:59.000Z</time>
      </trkpt>
      <trkpt lat="47.96476" lon="7.00559">
        <ele>1159.8</ele>
        <time>2022-10-22T13:57:08.111Z</time>
      </trkpt>
      <trkpt lat="47.96471" lon="7.0057">
        <ele>1160.8</ele>
        <time>2022-10-22T13:57:17.172Z</time>
      </trkpt>
      <trkpt lat="47.96464" lon="7.00583">
        <ele>1162.4</ele>
        <time>2022-10-22T13:57:27.000Z</time>
      </trkpt>
      <trkpt lat="47.96458" lon="7.00593">
        <ele>1163.7</ele>
        <time>2022-10-22T13:57:36.453Z</time>
      </trkpt>
      <trkpt lat="47.96453" lon="7.00601">
        <ele>1164.7</ele>
        <time>2022-10-22T13:57:46.000Z</time>
      </trkpt>
      <trkpt lat="47.96456" lon="7.006">
        <ele>1164.1</ele>
        <time>2022-10-22T13:57:56.000Z</time>
      </trkpt>
      <trkpt lat="47.96451" lon="7.00603">
        <ele>1165.1</ele>
        <time>2022-10-22T13:58:06.109Z</time>
      </trkpt>
      <trkpt lat="47.9644" lon="7.00611">
        <ele>1167.3</ele>
        <time>2022-10-22T13:58:15.152Z</time>
      </trkpt>
      <trkpt lat="47.96432" lon="7.00621">
        <ele>1168.6</ele>
        <time>2022-10-22T13:58:24.487Z</time>
      </trkpt>
      <trkpt lat="47.96425" lon="7.00626">
        <ele>1169.7</ele>
        <time>2022-10-22T13:58:33.894Z</time>
      </trkpt>
      <trkpt lat="47.96416" lon="7.00632">
        <ele>1171.2</ele>
        <time>2022-10-22T13:58:43.000Z</time>
      </trkpt>
      <trkpt lat="47.96405" lon="7.00637">
        <ele>1173.5</ele>
        <time>2022-10-22T13:58:52.609Z</time>
      </trkpt>
      <trkpt lat="47.96399" lon="7.00645">
        <ele>1174.4</ele>
        <time>2022-10-22T13:59:02.000Z</time>
      </trkpt>
      <trkpt lat="47.96393" lon="7.00651">
        <ele>1175.3</ele>
        <time>2022-10-22T13:59:11.090Z</time>
      </trkpt>
      <trkpt lat="47.96384" lon="7.00656">
        <ele>1176.5</ele>
        <time>2022-10-22T13:59:21.000Z</time>
      </trkpt>
      <trkpt lat="47.96375" lon="7.00674">
        <ele>1175.2</ele>
        <time>2022-10-22T13:59:30.855Z</time>
      </trkpt>
      <trkpt lat="47.96363" lon="7.00671">
        <ele>1178</ele>
        <time>2022-10-22T13:59:40.000Z</time>
      </trkpt>
      <trkpt lat="47.96349" lon="7.00676">
        <ele>1178.8</ele>
        <time>2022-10-22T13:59:49.832Z</time>
      </trkpt>
      <trkpt lat="47.96339" lon="7.00678">
        <ele>1179.4</ele>
        <time>2022-10-22T14:00:00.051Z</time>
      </trkpt>
      <trkpt lat="47.96329" lon="7.00681">
        <ele>1179.6</ele>
        <time>2022-10-22T14:00:10.000Z</time>
      </trkpt>
      <trkpt lat="47.96322" lon="7.00678">
        <ele>1180.2</ele>
        <time>2022-10-22T14:00:19.331Z</time>
      </trkpt>
      <trkpt lat="47.96311" lon="7.00677">
        <ele>1180.7</ele>
        <time>2022-10-22T14:00:28.783Z</time>
      </trkpt>
      <trkpt lat="47.963" lon="7.00675">
        <ele>1181</ele>
        <time>2022-10-22T14:00:38.000Z</time>
      </trkpt>
      <trkpt lat="47.96291" lon="7.00673">
        <ele>1181.1</ele>
        <time>2022-10-22T14:00:48.030Z</time>
      </trkpt>
      <trkpt lat="47.96279" lon="7.00668">
        <ele>1181.7</ele>
        <time>2022-10-22T14:00:57.033Z</time>
      </trkpt>
      <trkpt lat="47.96268" lon="7.00663">
        <ele>1181.5</ele>
        <time>2022-10-22T14:01:06.052Z</time>
      </trkpt>
      <trkpt lat="47.96263" lon="7.00656">
        <ele>1182.3</ele>
        <time>2022-10-22T14:01:16.000Z</time>
      </trkpt>
      <trkpt lat="47.96259" lon="7.00655">
        <ele>1182</ele>
        <time>2022-10-22T14:01:26.169Z</time>
      </trkpt>
      <trkpt lat="47.96245" lon="7.00646">
        <ele>1182.5</ele>
        <time>2022-10-22T14:01:36.000Z</time>
      </trkpt>
      <trkpt lat="47.96234" lon="7.00638">
        <ele>1183.6</ele>
        <time>2022-10-22T14:01:45.112Z</time>
      </trkpt>
      <trkpt lat="47.96223" lon="7.00631">
        <ele>1184.7</ele>
        <time>2022-10-22T14:01:54.571Z</time>
      </trkpt>
      <trkpt lat="47.96211" lon="7.00624">
        <ele>1185.6</ele>
        <time>2022-10-22T14:02:04.000Z</time>
      </trkpt>
      <trkpt lat="47.96197" lon="7.00622">
        <ele>1185.5</ele>
        <time>2022-10-22T14:02:14.051Z</time>
      </trkpt>
      <trkpt lat="47.96186" lon="7.00616">
        <ele>1186.5</ele>
        <time>2022-10-22T14:02:23.991Z</time>
      </trkpt>
      <trkpt lat="47.9618" lon="7.00611">
        <ele>1187.5</ele>
        <time>2022-10-22T14:02:33.589Z</time>
      </trkpt>
      <trkpt lat="47.9617" lon="7.00604">
        <ele>1188.7</ele>
        <time>2022-10-22T14:02:42.670Z</time>
      </trkpt>
      <trkpt lat="47.96157" lon="7.00596">
        <ele>1189.7</ele>
        <time>2022-10-22T14:02:51.951Z</time>
      </trkpt>
      <trkpt lat="47.96149" lon="7.00588">
        <ele>1191.3</ele>
        <time>2022-10-22T14:03:01.000Z</time>
      </trkpt>
      <trkpt lat="47.96141" lon="7.00583">
        <ele>1192.1</ele>
        <time>2022-10-22T14:03:10.190Z</time>
      </trkpt>
      <trkpt lat="47.96132" lon="7.00581">
        <ele>1192.4</ele>
        <time>2022-10-22T14:03:19.540Z</time>
      </trkpt>
      <trkpt lat="47.96122" lon="7.00577">
        <ele>1193</ele>
        <time>2022-10-22T14:03:29.013Z</time>
      </trkpt>
      <trkpt lat="47.96113" lon="7.00571">
        <ele>1193.7</ele>
        <time>2022-10-22T14:03:38.712Z</time>
      </trkpt>
      <trkpt lat="47.96101" lon="7.00566">
        <ele>1195.2</ele>
        <time>2022-10-22T14:03:48.000Z</time>
      </trkpt>
      <trkpt lat="47.9609" lon="7.00559">
        <ele>1196.6</ele>
        <time>2022-10-22T14:03:57.850Z</time>
      </trkpt>
      <trkpt lat="47.9608" lon="7.00558">
        <ele>1196.9</ele>
        <time>2022-10-22T14:04:06.911Z</time>
      </trkpt>
      <trkpt lat="47.96072" lon="7.00555">
        <ele>1197.6</ele>
        <time>2022-10-22T14:04:16.015Z</time>
      </trkpt>
      <trkpt lat="47.96061" lon="7.00548">
        <ele>1198.7</ele>
        <time>2022-10-22T14:04:25.493Z</time>
      </trkpt>
      <trkpt lat="47.96049" lon="7.00539">
        <ele>1199.9</ele>
        <time>2022-10-22T14:04:34.869Z</time>
      </trkpt>
      <trkpt lat="47.96042" lon="7.00533">
        <ele>1200.6</ele>
        <time>2022-10-22T14:04:43.930Z</time>
      </trkpt>
      <trkpt lat="47.96029" lon="7.00529">
        <ele>1200.9</ele>
        <time>2022-10-22T14:04:52.973Z</time>
      </trkpt>
      <trkpt lat="47.96015" lon="7.00518">
        <ele>1202.2</ele>
        <time>2022-10-22T14:05:02.170Z</time>
      </trkpt>
      <trkpt lat="47.96004" lon="7.00506">
        <ele>1202.9</ele>
        <time>2022-10-22T14:05:11.809Z</time>
      </trkpt>
      <trkpt lat="47.95997" lon="7.00501">
        <ele>1202.8</ele>
        <time>2022-10-22T14:05:21.000Z</time>
      </trkpt>
      <trkpt lat="47.9599" lon="7.00497">
        <ele>1202.7</ele>
        <time>2022-10-22T14:05:30.812Z</time>
      </trkpt>
      <trkpt lat="47.95989" lon="7.00493">
        <ele>1202.8</ele>
        <time>2022-10-22T14:05:40.000Z</time>
      </trkpt>
      <trkpt lat="47.95981" lon="7.00482">
        <ele>1202.5</ele>
        <time>2022-10-22T14:05:49.989Z</time>
      </trkpt>
      <trkpt lat="47.9595" lon="7.00491">
        <ele>1200.9</ele>
        <time>2022-10-22T14:05:59.976Z</time>
      </trkpt>
      <trkpt lat="47.95932" lon="7.00485">
        <ele>1200.7</ele>
        <time>2022-10-22T14:06:09.000Z</time>
      </trkpt>
      <trkpt lat="47.95922" lon="7.00482">
        <ele>1200.6</ele>
        <time>2022-10-22T14:06:18.549Z</time>
      </trkpt>
      <trkpt lat="47.9592" lon="7.00486">
        <ele>1200.9</ele>
        <time>2022-10-22T14:06:28.000Z</time>
      </trkpt>
      <trkpt lat="47.95923" lon="7.00488">
        <ele>1201</ele>
        <time>2022-10-22T14:06:37.809Z</time>
      </trkpt>
      <trkpt lat="47.95928" lon="7.00484">
        <ele>1200.7</ele>
        <time>2022-10-22T14:06:47.000Z</time>
      </trkpt>
      <trkpt lat="47.95939" lon="7.00483">
        <ele>1200.5</ele>
        <time>2022-10-22T14:06:56.949Z</time>
      </trkpt>
      <trkpt lat="47.9595" lon="7.00477">
        <ele>1200.5</ele>
        <time>2022-10-22T14:07:07.000Z</time>
      </trkpt>
      <trkpt lat="47.95956" lon="7.00472">
        <ele>1200.8</ele>
        <time>2022-10-22T14:07:17.000Z</time>
      </trkpt>
      <trkpt lat="47.9596" lon="7.0047">
        <ele>1201.1</ele>
        <time>2022-10-22T14:07:26.712Z</time>
      </trkpt>
      <trkpt lat="47.95966" lon="7.00461">
        <ele>1201.4</ele>
        <time>2022-10-22T14:07:36.000Z</time>
      </trkpt>
      <trkpt lat="47.95974" lon="7.00451">
        <ele>1202.2</ele>
        <time>2022-10-22T14:07:45.468Z</time>
      </trkpt>
      <trkpt lat="47.95978" lon="7.00443">
        <ele>1202.5</ele>
        <time>2022-10-22T14:07:54.988Z</time>
      </trkpt>
      <trkpt lat="47.95985" lon="7.00429">
        <ele>1203.1</ele>
        <time>2022-10-22T14:08:04.000Z</time>
      </trkpt>
      <trkpt lat="47.95992" lon="7.00416">
        <ele>1203.8</ele>
        <time>2022-10-22T14:08:14.000Z</time>
      </trkpt>
      <trkpt lat="47.95998" lon="7.00402">
        <ele>1204.7</ele>
        <time>2022-10-22T14:08:24.091Z</time>
      </trkpt>
      <trkpt lat="47.96006" lon="7.00387">
        <ele>1206.3</ele>
        <time>2022-10-22T14:08:33.811Z</time>
      </trkpt>
      <trkpt lat="47.96013" lon="7.00378">
        <ele>1207.4</ele>
        <time>2022-10-22T14:08:43.000Z</time>
      </trkpt>
      <trkpt lat="47.96018" lon="7.00365">
        <ele>1207.9</ele>
        <time>2022-10-22T14:08:52.832Z</time>
      </trkpt>
      <trkpt lat="47.96026" lon="7.00359">
        <ele>1209.3</ele>
        <time>2022-10-22T14:09:02.110Z</time>
      </trkpt>
      <trkpt lat="47.96034" lon="7.00349">
        <ele>1211</ele>
        <time>2022-10-22T14:09:11.990Z</time>
      </trkpt>
      <trkpt lat="47.96041" lon="7.00342">
        <ele>1212.3</ele>
        <time>2022-10-22T14:09:21.086Z</time>
      </trkpt>
      <trkpt lat="47.96048" lon="7.00334">
        <ele>1213.8</ele>
        <time>2022-10-22T14:09:30.411Z</time>
      </trkpt>
      <trkpt lat="47.9605" lon="7.00323">
        <ele>1213.2</ele>
        <time>2022-10-22T14:09:40.000Z</time>
      </trkpt>
      <trkpt lat="47.96065" lon="7.00315">
        <ele>1216.8</ele>
        <time>2022-10-22T14:09:49.888Z</time>
      </trkpt>
      <trkpt lat="47.96076" lon="7.00312">
        <ele>1219.4</ele>
        <time>2022-10-22T14:09:59.428Z</time>
      </trkpt>
      <trkpt lat="47.96077" lon="7.00294">
        <ele>1217.1</ele>
        <time>2022-10-22T14:10:09.089Z</time>
      </trkpt>
      <trkpt lat="47.96084" lon="7.00275">
        <ele>1215.9</ele>
        <time>2022-10-22T14:10:18.508Z</time>
      </trkpt>
      <trkpt lat="47.96092" lon="7.0026">
        <ele>1215.8</ele>
        <time>2022-10-22T14:10:28.000Z</time>
      </trkpt>
      <trkpt lat="47.961" lon="7.00255">
        <ele>1217</ele>
        <time>2022-10-22T14:10:38.000Z</time>
      </trkpt>
      <trkpt lat="47.96109" lon="7.00247">
        <ele>1218.1</ele>
        <time>2022-10-22T14:10:48.000Z</time>
      </trkpt>
      <trkpt lat="47.96116" lon="7.00238">
        <ele>1218.3</ele>
        <time>2022-10-22T14:10:57.089Z</time>
      </trkpt>
      <trkpt lat="47.96123" lon="7.00231">
        <ele>1219</ele>
        <time>2022-10-22T14:11:06.135Z</time>
      </trkpt>
      <trkpt lat="47.9613" lon="7.00221">
        <ele>1219.2</ele>
        <time>2022-10-22T14:11:15.780Z</time>
      </trkpt>
      <trkpt lat="47.96137" lon="7.00209">
        <ele>1219.6</ele>
        <time>2022-10-22T14:11:24.829Z</time>
      </trkpt>
      <trkpt lat="47.96147" lon="7.00196">
        <ele>1220.4</ele>
        <time>2022-10-22T14:11:33.930Z</time>
      </trkpt>
      <trkpt lat="47.96154" lon="7.00183">
        <ele>1220.5</ele>
        <time>2022-10-22T14:11:43.000Z</time>
      </trkpt>
      <trkpt lat="47.96161" lon="7.0017">
        <ele>1220.9</ele>
        <time>2022-10-22T14:11:52.785Z</time>
      </trkpt>
      <trkpt lat="47.96169" lon="7.00172">
        <ele>1222.9</ele>
        <time>2022-10-22T14:12:02.131Z</time>
      </trkpt>
      <trkpt lat="47.96175" lon="7.00174">
        <ele>1224</ele>
        <time>2022-10-22T14:12:11.933Z</time>
      </trkpt>
      <trkpt lat="47.9618" lon="7.00176">
        <ele>1224.9</ele>
        <time>2022-10-22T14:12:22.000Z</time>
      </trkpt>
      <trkpt lat="47.96194" lon="7.0017">
        <ele>1226.2</ele>
        <time>2022-10-22T14:12:31.849Z</time>
      </trkpt>
      <trkpt lat="47.96203" lon="7.00164">
        <ele>1226.5</ele>
        <time>2022-10-22T14:12:41.107Z</time>
      </trkpt>
      <trkpt lat="47.96213" lon="7.00159">
        <ele>1227</ele>
        <time>2022-10-22T14:12:50.792Z</time>
      </trkpt>
      <trkpt lat="47.96219" lon="7.0016">
        <ele>1227.5</ele>
        <time>2022-10-22T14:13:00.000Z</time>
      </trkpt>
      <trkpt lat="47.96229" lon="7.00166">
        <ele>1227.7</ele>
        <time>2022-10-22T14:13:09.755Z</time>
      </trkpt>
      <trkpt lat="47.96242" lon="7.00165">
        <ele>1227.3</ele>
        <time>2022-10-22T14:13:19.000Z</time>
      </trkpt>
      <trkpt lat="47.96245" lon="7.00164">
        <ele>1227.2</ele>
        <time>2022-10-22T14:13:30.000Z</time>
      </trkpt>
      <trkpt lat="47.96261" lon="7.00161">
        <ele>1226.3</ele>
        <time>2022-10-22T14:13:40.000Z</time>
      </trkpt>
      <trkpt lat="47.96262" lon="7.00159">
        <ele>1226.2</ele>
        <time>2022-10-22T14:13:50.000Z</time>
      </trkpt>
      <trkpt lat="47.96253" lon="7.00158">
        <ele>1226.8</ele>
        <time>2022-10-22T14:14:00.000Z</time>
      </trkpt>
      <trkpt lat="47.9625" lon="7.0016">
        <ele>1227</ele>
        <time>2022-10-22T14:15:41.000Z</time>
      </trkpt>
      <trkpt lat="47.96247" lon="7.00163">
        <ele>1227.1</ele>
        <time>2022-10-22T14:15:51.000Z</time>
      </trkpt>
      <trkpt lat="47.96248" lon="7.00157">
        <ele>1227</ele>
        <time>2022-10-22T14:16:00.810Z</time>
      </trkpt>
      <trkpt lat="47.96253" lon="7.00137">
        <ele>1227</ele>
        <time>2022-10-22T14:16:10.551Z</time>
      </trkpt>
      <trkpt lat="47.96259" lon="7.00124">
        <ele>1227.2</ele>
        <time>2022-10-22T14:16:19.669Z</time>
      </trkpt>
      <trkpt lat="47.96259" lon="7.00109">
        <ele>1227.8</ele>
        <time>2022-10-22T14:16:29.000Z</time>
      </trkpt>
      <trkpt lat="47.96262" lon="7.00096">
        <ele>1228.4</ele>
        <time>2022-10-22T14:16:38.912Z</time>
      </trkpt>
      <trkpt lat="47.96265" lon="7.0008">
        <ele>1229.1</ele>
        <time>2022-10-22T14:16:48.532Z</time>
      </trkpt>
      <trkpt lat="47.96267" lon="7.00066">
        <ele>1229.6</ele>
        <time>2022-10-22T14:16:58.000Z</time>
      </trkpt>
      <trkpt lat="47.96266" lon="7.00053">
        <ele>1230.1</ele>
        <time>2022-10-22T14:17:07.772Z</time>
      </trkpt>
      <trkpt lat="47.96271" lon="7.00039">
        <ele>1230.4</ele>
        <time>2022-10-22T14:17:17.000Z</time>
      </trkpt>
      <trkpt lat="47.96275" lon="7.00026">
        <ele>1231</ele>
        <time>2022-10-22T14:17:26.112Z</time>
      </trkpt>
      <trkpt lat="47.96279" lon="7.0001">
        <ele>1231.6</ele>
        <time>2022-10-22T14:17:36.000Z</time>
      </trkpt>
      <trkpt lat="47.96283" lon="6.99996">
        <ele>1232</ele>
        <time>2022-10-22T14:17:46.071Z</time>
      </trkpt>
      <trkpt lat="47.96288" lon="6.99984">
        <ele>1232.4</ele>
        <time>2022-10-22T14:17:56.000Z</time>
      </trkpt>
      <trkpt lat="47.96294" lon="6.99969">
        <ele>1233.1</ele>
        <time>2022-10-22T14:18:06.000Z</time>
      </trkpt>
      <trkpt lat="47.96298" lon="6.99956">
        <ele>1233.9</ele>
        <time>2022-10-22T14:18:15.712Z</time>
      </trkpt>
      <trkpt lat="47.96302" lon="6.99943">
        <ele>1234.8</ele>
        <time>2022-10-22T14:18:25.132Z</time>
      </trkpt>
      <trkpt lat="47.96306" lon="6.99932">
        <ele>1235.4</ele>
        <time>2022-10-22T14:18:34.793Z</time>
      </trkpt>
      <trkpt lat="47.96311" lon="6.99918">
        <ele>1235.8</ele>
        <time>2022-10-22T14:18:44.000Z</time>
      </trkpt>
      <trkpt lat="47.96316" lon="6.99906">
        <ele>1235.8</ele>
        <time>2022-10-22T14:18:53.133Z</time>
      </trkpt>
      <trkpt lat="47.9632" lon="6.99904">
        <ele>1235.7</ele>
        <time>2022-10-22T14:19:03.000Z</time>
      </trkpt>
      <trkpt lat="47.96318" lon="6.99905">
        <ele>1235.7</ele>
        <time>2022-10-22T14:19:13.000Z</time>
      </trkpt>
      <trkpt lat="47.96255" lon="7.00019">
        <ele>1230.5</ele>
        <time>2022-10-22T14:19:22.010Z</time>
      </trkpt>
      <trkpt lat="47.96297" lon="6.99951">
        <ele>1234</ele>
        <time>2022-10-22T14:19:32.000Z</time>
      </trkpt>
      <trkpt lat="47.96298" lon="6.99945">
        <ele>1234.4</ele>
        <time>2022-10-22T14:19:42.000Z</time>
      </trkpt>
      <trkpt lat="47.96303" lon="6.99942">
        <ele>1234.9</ele>
        <time>2022-10-22T14:19:52.000Z</time>
      </trkpt>
      <trkpt lat="47.96303" lon="6.99922">
        <ele>1235.6</ele>
        <time>2022-10-22T14:20:02.000Z</time>
      </trkpt>
      <trkpt lat="47.96312" lon="6.99907">
        <ele>1235.9</ele>
        <time>2022-10-22T14:20:12.000Z</time>
      </trkpt>
      <trkpt lat="47.96315" lon="6.99905">
        <ele>1235.8</ele>
        <time>2022-10-22T14:21:44.000Z</time>
      </trkpt>
      <trkpt lat="47.96325" lon="6.999">
        <ele>1235.7</ele>
        <time>2022-10-22T14:21:54.000Z</time>
      </trkpt>
      <trkpt lat="47.9633" lon="6.99892">
        <ele>1235.9</ele>
        <time>2022-10-22T14:22:03.850Z</time>
      </trkpt>
      <trkpt lat="47.96333" lon="6.99891">
        <ele>1235.9</ele>
        <time>2022-10-22T14:22:13.000Z</time>
      </trkpt>
      <trkpt lat="47.96331" lon="6.99891">
        <ele>1235.9</ele>
        <time>2022-10-22T14:22:57.000Z</time>
      </trkpt>
      <trkpt lat="47.96338" lon="6.99884">
        <ele>1235.3</ele>
        <time>2022-10-22T14:23:06.432Z</time>
      </trkpt>
      <trkpt lat="47.96351" lon="6.99874">
        <ele>1233.9</ele>
        <time>2022-10-22T14:23:16.000Z</time>
      </trkpt>
      <trkpt lat="47.96361" lon="6.99865">
        <ele>1233</ele>
        <time>2022-10-22T14:23:25.988Z</time>
      </trkpt>
      <trkpt lat="47.96369" lon="6.99853">
        <ele>1231.9</ele>
        <time>2022-10-22T14:23:36.000Z</time>
      </trkpt>
      <trkpt lat="47.96374" lon="6.99849">
        <ele>1231.4</ele>
        <time>2022-10-22T14:23:45.871Z</time>
      </trkpt>
      <trkpt lat="47.96381" lon="6.9984">
        <ele>1230.7</ele>
        <time>2022-10-22T14:23:55.110Z</time>
      </trkpt>
      <trkpt lat="47.96391" lon="6.9983">
        <ele>1229.8</ele>
        <time>2022-10-22T14:24:04.790Z</time>
      </trkpt>
      <trkpt lat="47.96398" lon="6.99827">
        <ele>1229.1</ele>
        <time>2022-10-22T14:24:14.047Z</time>
      </trkpt>
      <trkpt lat="47.96408" lon="6.99813">
        <ele>1228</ele>
        <time>2022-10-22T14:24:23.249Z</time>
      </trkpt>
      <trkpt lat="47.96418" lon="6.99803">
        <ele>1226.6</ele>
        <time>2022-10-22T14:24:32.852Z</time>
      </trkpt>
      <trkpt lat="47.96426" lon="6.99795">
        <ele>1225.1</ele>
        <time>2022-10-22T14:24:41.969Z</time>
      </trkpt>
      <trkpt lat="47.96436" lon="6.99786">
        <ele>1223.8</ele>
        <time>2022-10-22T14:24:51.909Z</time>
      </trkpt>
      <trkpt lat="47.96447" lon="6.99776">
        <ele>1222.5</ele>
        <time>2022-10-22T14:25:01.000Z</time>
      </trkpt>
      <trkpt lat="47.96457" lon="6.99764">
        <ele>1220.6</ele>
        <time>2022-10-22T14:25:10.833Z</time>
      </trkpt>
      <trkpt lat="47.96468" lon="6.99756">
        <ele>1219.4</ele>
        <time>2022-10-22T14:25:20.051Z</time>
      </trkpt>
      <trkpt lat="47.96475" lon="6.99747">
        <ele>1218.9</ele>
        <time>2022-10-22T14:25:29.530Z</time>
      </trkpt>
      <trkpt lat="47.96485" lon="6.99738">
        <ele>1218.3</ele>
        <time>2022-10-22T14:25:39.068Z</time>
      </trkpt>
      <trkpt lat="47.96496" lon="6.99728">
        <ele>1217.4</ele>
        <time>2022-10-22T14:25:48.607Z</time>
      </trkpt>
      <trkpt lat="47.96505" lon="6.99719">
        <ele>1216.3</ele>
        <time>2022-10-22T14:25:57.832Z</time>
      </trkpt>
      <trkpt lat="47.9651" lon="6.99709">
        <ele>1215.6</ele>
        <time>2022-10-22T14:26:07.089Z</time>
      </trkpt>
      <trkpt lat="47.96513" lon="6.99699">
        <ele>1215.1</ele>
        <time>2022-10-22T14:26:17.000Z</time>
      </trkpt>
      <trkpt lat="47.96517" lon="6.99693">
        <ele>1214.7</ele>
        <time>2022-10-22T14:26:27.013Z</time>
      </trkpt>
      <trkpt lat="47.96527" lon="6.99687">
        <ele>1213.3</ele>
        <time>2022-10-22T14:26:36.869Z</time>
      </trkpt>
      <trkpt lat="47.96534" lon="6.99685">
        <ele>1212.4</ele>
        <time>2022-10-22T14:26:46.000Z</time>
      </trkpt>
      <trkpt lat="47.9655" lon="6.99657">
        <ele>1208.4</ele>
        <time>2022-10-22T14:26:56.000Z</time>
      </trkpt>
      <trkpt lat="47.96551" lon="6.99622">
        <ele>1204.1</ele>
        <time>2022-10-22T14:27:06.000Z</time>
      </trkpt>
      <trkpt lat="47.96548" lon="6.99658">
        <ele>1208.6</ele>
        <time>2022-10-22T14:27:15.133Z</time>
      </trkpt>
      <trkpt lat="47.96555" lon="6.9967">
        <ele>1209.2</ele>
        <time>2022-10-22T14:27:24.632Z</time>
      </trkpt>
      <trkpt lat="47.96567" lon="6.99661">
        <ele>1207.7</ele>
        <time>2022-10-22T14:27:34.050Z</time>
      </trkpt>
      <trkpt lat="47.96578" lon="6.99648">
        <ele>1206</ele>
        <time>2022-10-22T14:27:43.971Z</time>
      </trkpt>
      <trkpt lat="47.96588" lon="6.99637">
        <ele>1204.7</ele>
        <time>2022-10-22T14:27:53.990Z</time>
      </trkpt>
      <trkpt lat="47.96597" lon="6.99632">
        <ele>1204</ele>
        <time>2022-10-22T14:28:03.000Z</time>
      </trkpt>
      <trkpt lat="47.96608" lon="6.99624">
        <ele>1203.1</ele>
        <time>2022-10-22T14:28:12.552Z</time>
      </trkpt>
      <trkpt lat="47.96619" lon="6.99617">
        <ele>1202</ele>
        <time>2022-10-22T14:28:21.828Z</time>
      </trkpt>
      <trkpt lat="47.96626" lon="6.99609">
        <ele>1201.3</ele>
        <time>2022-10-22T14:28:31.111Z</time>
      </trkpt>
      <trkpt lat="47.96635" lon="6.996">
        <ele>1200.7</ele>
        <time>2022-10-22T14:28:40.249Z</time>
      </trkpt>
      <trkpt lat="47.96645" lon="6.99585">
        <ele>1199.8</ele>
        <time>2022-10-22T14:28:50.391Z</time>
      </trkpt>
      <trkpt lat="47.96654" lon="6.99576">
        <ele>1199.5</ele>
        <time>2022-10-22T14:28:59.831Z</time>
      </trkpt>
      <trkpt lat="47.96661" lon="6.99563">
        <ele>1199.6</ele>
        <time>2022-10-22T14:29:09.968Z</time>
      </trkpt>
      <trkpt lat="47.96667" lon="6.99553">
        <ele>1199.9</ele>
        <time>2022-10-22T14:29:19.000Z</time>
      </trkpt>
      <trkpt lat="47.96675" lon="6.99541">
        <ele>1199.5</ele>
        <time>2022-10-22T14:29:28.781Z</time>
      </trkpt>
      <trkpt lat="47.96685" lon="6.9953">
        <ele>1199.6</ele>
        <time>2022-10-22T14:29:38.129Z</time>
      </trkpt>
      <trkpt lat="47.96697" lon="6.9952">
        <ele>1199.7</ele>
        <time>2022-10-22T14:29:47.871Z</time>
      </trkpt>
      <trkpt lat="47.96708" lon="6.99512">
        <ele>1199.5</ele>
        <time>2022-10-22T14:29:56.886Z</time>
      </trkpt>
      <trkpt lat="47.96718" lon="6.99505">
        <ele>1199.7</ele>
        <time>2022-10-22T14:30:06.000Z</time>
      </trkpt>
      <trkpt lat="47.96727" lon="6.995">
        <ele>1200</ele>
        <time>2022-10-22T14:30:16.000Z</time>
      </trkpt>
      <trkpt lat="47.96729" lon="6.99494">
        <ele>1199.7</ele>
        <time>2022-10-22T14:30:26.000Z</time>
      </trkpt>
      <trkpt lat="47.96737" lon="6.99487">
        <ele>1199.8</ele>
        <time>2022-10-22T14:30:35.992Z</time>
      </trkpt>
      <trkpt lat="47.9675" lon="6.99477">
        <ele>1200.8</ele>
        <time>2022-10-22T14:30:45.913Z</time>
      </trkpt>
      <trkpt lat="47.96762" lon="6.99474">
        <ele>1200.9</ele>
        <time>2022-10-22T14:30:55.000Z</time>
      </trkpt>
      <trkpt lat="47.96771" lon="6.99468">
        <ele>1201</ele>
        <time>2022-10-22T14:31:04.650Z</time>
      </trkpt>
      <trkpt lat="47.96778" lon="6.99464">
        <ele>1201.3</ele>
        <time>2022-10-22T14:31:14.000Z</time>
      </trkpt>
      <trkpt lat="47.96774" lon="6.99462">
        <ele>1201.2</ele>
        <time>2022-10-22T14:31:24.000Z</time>
      </trkpt>
      <trkpt lat="47.96783" lon="6.99451">
        <ele>1202.1</ele>
        <time>2022-10-22T14:31:34.000Z</time>
      </trkpt>
      <trkpt lat="47.96794" lon="6.99441">
        <ele>1203.2</ele>
        <time>2022-10-22T14:31:43.128Z</time>
      </trkpt>
      <trkpt lat="47.96801" lon="6.99431">
        <ele>1204</ele>
        <time>2022-10-22T14:31:52.948Z</time>
      </trkpt>
      <trkpt lat="47.96808" lon="6.99422">
        <ele>1205.1</ele>
        <time>2022-10-22T14:32:02.107Z</time>
      </trkpt>
      <trkpt lat="47.96816" lon="6.99408">
        <ele>1206.7</ele>
        <time>2022-10-22T14:32:12.029Z</time>
      </trkpt>
      <trkpt lat="47.96821" lon="6.99399">
        <ele>1208</ele>
        <time>2022-10-22T14:32:21.710Z</time>
      </trkpt>
      <trkpt lat="47.9683" lon="6.99391">
        <ele>1210.2</ele>
        <time>2022-10-22T14:32:30.872Z</time>
      </trkpt>
      <trkpt lat="47.96833" lon="6.99388">
        <ele>1210.9</ele>
        <time>2022-10-22T14:32:40.000Z</time>
      </trkpt>
      <trkpt lat="47.96834" lon="6.99397">
        <ele>1210.2</ele>
        <time>2022-10-22T14:32:50.000Z</time>
      </trkpt>
      <trkpt lat="47.96831" lon="6.99392">
        <ele>1210.3</ele>
        <time>2022-10-22T14:33:00.000Z</time>
      </trkpt>
      <trkpt lat="47.96832" lon="6.99388">
        <ele>1210.8</ele>
        <time>2022-10-22T14:33:10.000Z</time>
      </trkpt>
      <trkpt lat="47.9683" lon="6.99389">
        <ele>1210.4</ele>
        <time>2022-10-22T14:33:20.000Z</time>
      </trkpt>
      <trkpt lat="47.96838" lon="6.99382">
        <ele>1212.3</ele>
        <time>2022-10-22T14:33:29.170Z</time>
      </trkpt>
      <trkpt lat="47.96842" lon="6.99371">
        <ele>1214</ele>
        <time>2022-10-22T14:33:38.831Z</time>
      </trkpt>
      <trkpt lat="47.96845" lon="6.99361">
        <ele>1215.6</ele>
        <time>2022-10-22T14:33:48.000Z</time>
      </trkpt>
      <trkpt lat="47.96848" lon="6.99351">
        <ele>1217</ele>
        <time>2022-10-22T14:33:58.000Z</time>
      </trkpt>
      <trkpt lat="47.96848" lon="6.99342">
        <ele>1217.9</ele>
        <time>2022-10-22T14:34:07.670Z</time>
      </trkpt>
      <trkpt lat="47.96854" lon="6.99337">
        <ele>1219.4</ele>
        <time>2022-10-22T14:34:17.000Z</time>
      </trkpt>
      <trkpt lat="47.96862" lon="6.99327">
        <ele>1222</ele>
        <time>2022-10-22T14:34:26.689Z</time>
      </trkpt>
      <trkpt lat="47.96866" lon="6.9932">
        <ele>1224.1</ele>
        <time>2022-10-22T14:34:36.000Z</time>
      </trkpt>
      <trkpt lat="47.9687" lon="6.99315">
        <ele>1225.7</ele>
        <time>2022-10-22T14:34:45.632Z</time>
      </trkpt>
      <trkpt lat="47.96883" lon="6.99316">
        <ele>1228.5</ele>
        <time>2022-10-22T14:34:55.000Z</time>
      </trkpt>
      <trkpt lat="47.96885" lon="6.99317">
        <ele>1229</ele>
        <time>2022-10-22T14:35:04.986Z</time>
      </trkpt>
      <trkpt lat="47.96894" lon="6.99324">
        <ele>1229.6</ele>
        <time>2022-10-22T14:35:14.709Z</time>
      </trkpt>
      <trkpt lat="47.96894" lon="6.99306">
        <ele>1232.7</ele>
        <time>2022-10-22T14:35:24.146Z</time>
      </trkpt>
      <trkpt lat="47.96898" lon="6.99299">
        <ele>1234.1</ele>
        <time>2022-10-22T14:35:33.170Z</time>
      </trkpt>
      <trkpt lat="47.96898" lon="6.99291">
        <ele>1235.3</ele>
        <time>2022-10-22T14:35:43.000Z</time>
      </trkpt>
      <trkpt lat="47.96903" lon="6.99287">
        <ele>1236.3</ele>
        <time>2022-10-22T14:35:53.000Z</time>
      </trkpt>
      <trkpt lat="47.96904" lon="6.99287">
        <ele>1236.4</ele>
        <time>2022-10-22T14:36:04.000Z</time>
      </trkpt>
      <trkpt lat="47.96906" lon="6.99285">
        <ele>1237</ele>
        <time>2022-10-22T14:36:14.000Z</time>
      </trkpt>
      <trkpt lat="47.96908" lon="6.99275">
        <ele>1238.4</ele>
        <time>2022-10-22T14:36:24.000Z</time>
      </trkpt>
      <trkpt lat="47.96907" lon="6.99268">
        <ele>1238.9</ele>
        <time>2022-10-22T14:36:34.000Z</time>
      </trkpt>
      <trkpt lat="47.96904" lon="6.9928">
        <ele>1237.5</ele>
        <time>2022-10-22T14:36:44.000Z</time>
      </trkpt>
      <trkpt lat="47.96901" lon="6.99285">
        <ele>1236.5</ele>
        <time>2022-10-22T14:36:54.000Z</time>
      </trkpt>
      <trkpt lat="47.96903" lon="6.99284">
        <ele>1236.8</ele>
        <time>2022-10-22T14:37:16.000Z</time>
      </trkpt>
      <trkpt lat="47.96909" lon="6.99273">
        <ele>1238.6</ele>
        <time>2022-10-22T14:37:25.889Z</time>
      </trkpt>
      <trkpt lat="47.96921" lon="6.99261">
        <ele>1241</ele>
        <time>2022-10-22T14:37:35.087Z</time>
      </trkpt>
      <trkpt lat="47.96928" lon="6.99248">
        <ele>1242.5</ele>
        <time>2022-10-22T14:37:45.000Z</time>
      </trkpt>
      <trkpt lat="47.96936" lon="6.99234">
        <ele>1243.3</ele>
        <time>2022-10-22T14:37:54.831Z</time>
      </trkpt>
      <trkpt lat="47.96945" lon="6.99227">
        <ele>1243.8</ele>
        <time>2022-10-22T14:38:03.988Z</time>
      </trkpt>
      <trkpt lat="47.96958" lon="6.99226">
        <ele>1244.3</ele>
        <time>2022-10-22T14:38:13.609Z</time>
      </trkpt>
      <trkpt lat="47.96967" lon="6.99224">
        <ele>1244.7</ele>
        <time>2022-10-22T14:38:23.012Z</time>
      </trkpt>
      <trkpt lat="47.96978" lon="6.9922">
        <ele>1245</ele>
        <time>2022-10-22T14:38:32.632Z</time>
      </trkpt>
      <trkpt lat="47.96992" lon="6.99217">
        <ele>1245</ele>
        <time>2022-10-22T14:38:42.000Z</time>
      </trkpt>
      <trkpt lat="47.97004" lon="6.99217">
        <ele>1245</ele>
        <time>2022-10-22T14:38:51.767Z</time>
      </trkpt>
      <trkpt lat="47.97014" lon="6.99213">
        <ele>1245</ele>
        <time>2022-10-22T14:39:00.930Z</time>
      </trkpt>
      <trkpt lat="47.97026" lon="6.99209">
        <ele>1245</ele>
        <time>2022-10-22T14:39:11.032Z</time>
      </trkpt>
      <trkpt lat="47.97039" lon="6.9921">
        <ele>1244.8</ele>
        <time>2022-10-22T14:39:20.813Z</time>
      </trkpt>
      <trkpt lat="47.97052" lon="6.99209">
        <ele>1244.6</ele>
        <time>2022-10-22T14:39:30.070Z</time>
      </trkpt>
      <trkpt lat="47.9706" lon="6.9921">
        <ele>1244.4</ele>
        <time>2022-10-22T14:39:40.000Z</time>
      </trkpt>
      <trkpt lat="47.97059" lon="6.99207">
        <ele>1244.5</ele>
        <time>2022-10-22T14:39:50.000Z</time>
      </trkpt>
      <trkpt lat="47.97058" lon="6.99206">
        <ele>1244.6</ele>
        <time>2022-10-22T14:40:00.000Z</time>
      </trkpt>
      <trkpt lat="47.97059" lon="6.99205">
        <ele>1244.6</ele>
        <time>2022-10-22T14:40:11.831Z</time>
      </trkpt>
      <trkpt lat="47.9707" lon="6.99201">
        <ele>1244.8</ele>
        <time>2022-10-22T14:40:21.000Z</time>
      </trkpt>
      <trkpt lat="47.97082" lon="6.99195">
        <ele>1245</ele>
        <time>2022-10-22T14:40:30.029Z</time>
      </trkpt>
      <trkpt lat="47.97093" lon="6.99186">
        <ele>1245.5</ele>
        <time>2022-10-22T14:40:39.548Z</time>
      </trkpt>
      <trkpt lat="47.97102" lon="6.9918">
        <ele>1246</ele>
        <time>2022-10-22T14:40:49.068Z</time>
      </trkpt>
      <trkpt lat="47.97115" lon="6.99172">
        <ele>1247.2</ele>
        <time>2022-10-22T14:40:59.010Z</time>
      </trkpt>
      <trkpt lat="47.97123" lon="6.99172">
        <ele>1247.9</ele>
        <time>2022-10-22T14:41:09.000Z</time>
      </trkpt>
      <trkpt lat="47.97121" lon="6.99171">
        <ele>1247.8</ele>
        <time>2022-10-22T14:41:19.000Z</time>
      </trkpt>
      <trkpt lat="47.97125" lon="6.99169">
        <ele>1248.3</ele>
        <time>2022-10-22T14:41:28.612Z</time>
      </trkpt>
      <trkpt lat="47.97136" lon="6.99164">
        <ele>1249.8</ele>
        <time>2022-10-22T14:41:38.000Z</time>
      </trkpt>
      <trkpt lat="47.97148" lon="6.99155">
        <ele>1251.2</ele>
        <time>2022-10-22T14:41:48.052Z</time>
      </trkpt>
      <trkpt lat="47.97156" lon="6.99151">
        <ele>1251.7</ele>
        <time>2022-10-22T14:41:58.029Z</time>
      </trkpt>
      <trkpt lat="47.97163" lon="6.99148">
        <ele>1252.2</ele>
        <time>2022-10-22T14:42:08.000Z</time>
      </trkpt>
      <trkpt lat="47.97164" lon="6.99148">
        <ele>1252.3</ele>
        <time>2022-10-22T14:42:18.000Z</time>
      </trkpt>
      <trkpt lat="47.97176" lon="6.99143">
        <ele>1253.1</ele>
        <time>2022-10-22T14:42:27.953Z</time>
      </trkpt>
      <trkpt lat="47.97189" lon="6.99141">
        <ele>1253.7</ele>
        <time>2022-10-22T14:42:37.554Z</time>
      </trkpt>
      <trkpt lat="47.97198" lon="6.99141">
        <ele>1254.2</ele>
        <time>2022-10-22T14:42:46.791Z</time>
      </trkpt>
      <trkpt lat="47.9721" lon="6.99139">
        <ele>1255.1</ele>
        <time>2022-10-22T14:42:56.030Z</time>
      </trkpt>
      <trkpt lat="47.97224" lon="6.99139">
        <ele>1256.1</ele>
        <time>2022-10-22T14:43:05.969Z</time>
      </trkpt>
      <trkpt lat="47.97234" lon="6.99141">
        <ele>1256.7</ele>
        <time>2022-10-22T14:43:15.000Z</time>
      </trkpt>
      <trkpt lat="47.97244" lon="6.99141">
        <ele>1257.5</ele>
        <time>2022-10-22T14:43:24.371Z</time>
      </trkpt>
      <trkpt lat="47.97254" lon="6.99138">
        <ele>1258.5</ele>
        <time>2022-10-22T14:43:33.411Z</time>
      </trkpt>
      <trkpt lat="47.97264" lon="6.99137">
        <ele>1259.6</ele>
        <time>2022-10-22T14:43:43.009Z</time>
      </trkpt>
      <trkpt lat="47.97275" lon="6.99136">
        <ele>1260.7</ele>
        <time>2022-10-22T14:43:52.992Z</time>
      </trkpt>
      <trkpt lat="47.97286" lon="6.99136">
        <ele>1261.3</ele>
        <time>2022-10-22T14:44:02.000Z</time>
      </trkpt>
      <trkpt lat="47.97297" lon="6.99133">
        <ele>1261.8</ele>
        <time>2022-10-22T14:44:12.000Z</time>
      </trkpt>
      <trkpt lat="47.9731" lon="6.99132">
        <ele>1262.6</ele>
        <time>2022-10-22T14:44:21.932Z</time>
      </trkpt>
      <trkpt lat="47.97321" lon="6.99129">
        <ele>1263.3</ele>
        <time>2022-10-22T14:44:31.069Z</time>
      </trkpt>
      <trkpt lat="47.97332" lon="6.99127">
        <ele>1263.9</ele>
        <time>2022-10-22T14:44:40.533Z</time>
      </trkpt>
      <trkpt lat="47.97344" lon="6.99122">
        <ele>1264.1</ele>
        <time>2022-10-22T14:44:49.933Z</time>
      </trkpt>
      <trkpt lat="47.97355" lon="6.99115">
        <ele>1264.6</ele>
        <time>2022-10-22T14:44:59.000Z</time>
      </trkpt>
      <trkpt lat="47.97366" lon="6.99111">
        <ele>1265</ele>
        <time>2022-10-22T14:45:08.132Z</time>
      </trkpt>
      <trkpt lat="47.97377" lon="6.99106">
        <ele>1265.2</ele>
        <time>2022-10-22T14:45:17.151Z</time>
      </trkpt>
      <trkpt lat="47.97388" lon="6.99099">
        <ele>1265.4</ele>
        <time>2022-10-22T14:45:27.000Z</time>
      </trkpt>
      <trkpt lat="47.974" lon="6.99094">
        <ele>1266</ele>
        <time>2022-10-22T14:45:37.070Z</time>
      </trkpt>
      <trkpt lat="47.97411" lon="6.99088">
        <ele>1266.6</ele>
        <time>2022-10-22T14:45:46.112Z</time>
      </trkpt>
      <trkpt lat="47.97423" lon="6.99084">
        <ele>1267.2</ele>
        <time>2022-10-22T14:45:55.530Z</time>
      </trkpt>
      <trkpt lat="47.97433" lon="6.99077">
        <ele>1268</ele>
        <time>2022-10-22T14:46:04.691Z</time>
      </trkpt>
      <trkpt lat="47.97443" lon="6.99071">
        <ele>1269.2</ele>
        <time>2022-10-22T14:46:13.909Z</time>
      </trkpt>
      <trkpt lat="47.97449" lon="6.99063">
        <ele>1269.8</ele>
        <time>2022-10-22T14:46:23.131Z</time>
      </trkpt>
      <trkpt lat="47.97448" lon="6.99064">
        <ele>1269.6</ele>
        <time>2022-10-22T14:46:33.000Z</time>
      </trkpt>
      <trkpt lat="47.97455" lon="6.99063">
        <ele>1268.9</ele>
        <time>2022-10-22T14:46:43.000Z</time>
      </trkpt>
      <trkpt lat="47.97468" lon="6.99055">
        <ele>1267.6</ele>
        <time>2022-10-22T14:46:52.785Z</time>
      </trkpt>
      <trkpt lat="47.97477" lon="6.99044">
        <ele>1267</ele>
        <time>2022-10-22T14:47:02.000Z</time>
      </trkpt>
      <trkpt lat="47.97486" lon="6.99033">
        <ele>1267.3</ele>
        <time>2022-10-22T14:47:12.088Z</time>
      </trkpt>
      <trkpt lat="47.97494" lon="6.99021">
        <ele>1267.9</ele>
        <time>2022-10-22T14:47:21.170Z</time>
      </trkpt>
      <trkpt lat="47.97503" lon="6.99008">
        <ele>1268.8</ele>
        <time>2022-10-22T14:47:31.000Z</time>
      </trkpt>
      <trkpt lat="47.97512" lon="6.98997">
        <ele>1269.4</ele>
        <time>2022-10-22T14:47:40.127Z</time>
      </trkpt>
      <trkpt lat="47.97519" lon="6.98989">
        <ele>1269.7</ele>
        <time>2022-10-22T14:47:49.908Z</time>
      </trkpt>
      <trkpt lat="47.97526" lon="6.98983">
        <ele>1269.9</ele>
        <time>2022-10-22T14:47:59.000Z</time>
      </trkpt>
      <trkpt lat="47.97534" lon="6.98974">
        <ele>1269.2</ele>
        <time>2022-10-22T14:48:09.000Z</time>
      </trkpt>
      <trkpt lat="47.97532" lon="6.98975">
        <ele>1269.4</ele>
        <time>2022-10-22T14:48:19.000Z</time>
      </trkpt>
      <trkpt lat="47.97531" lon="6.98976">
        <ele>1269.5</ele>
        <time>2022-10-22T14:48:37.000Z</time>
      </trkpt>
      <trkpt lat="47.9753" lon="6.98974">
        <ele>1269.7</ele>
        <time>2022-10-22T14:48:47.000Z</time>
      </trkpt>
      <trkpt lat="47.97531" lon="6.98973">
        <ele>1269.5</ele>
        <time>2022-10-22T14:49:01.509Z</time>
      </trkpt>
      <trkpt lat="47.97535" lon="6.98971">
        <ele>1268.9</ele>
        <time>2022-10-22T14:49:11.048Z</time>
      </trkpt>
      <trkpt lat="47.97535" lon="6.98976">
        <ele>1268.9</ele>
        <time>2022-10-22T14:49:21.000Z</time>
      </trkpt>
      <trkpt lat="47.97545" lon="6.98965">
        <ele>1266.9</ele>
        <time>2022-10-22T14:49:31.000Z</time>
      </trkpt>
      <trkpt lat="47.97538" lon="6.9897">
        <ele>1268.3</ele>
        <time>2022-10-22T14:49:41.000Z</time>
      </trkpt>
      <trkpt lat="47.97537" lon="6.98971">
        <ele>1268.5</ele>
        <time>2022-10-22T14:49:51.000Z</time>
      </trkpt>
      <trkpt lat="47.97538" lon="6.98972">
        <ele>1268.5</ele>
        <time>2022-10-22T14:50:01.000Z</time>
      </trkpt>
      <trkpt lat="47.97537" lon="6.98972">
        <ele>1268.7</ele>
        <time>2022-10-22T14:50:10.913Z</time>
      </trkpt>
      <trkpt lat="47.9754" lon="6.98968">
        <ele>1267.9</ele>
        <time>2022-10-22T14:50:20.000Z</time>
      </trkpt>
      <trkpt lat="47.97538" lon="6.98969">
        <ele>1268.3</ele>
        <time>2022-10-22T14:50:30.000Z</time>
      </trkpt>
      <trkpt lat="47.97537" lon="6.98969">
        <ele>1268.5</ele>
        <time>2022-10-22T14:50:45.000Z</time>
      </trkpt>
      <trkpt lat="47.97544" lon="6.98963">
        <ele>1266.7</ele>
        <time>2022-10-22T14:50:54.071Z</time>
      </trkpt>
      <trkpt lat="47.97552" lon="6.98949">
        <ele>1264.1</ele>
        <time>2022-10-22T14:51:03.972Z</time>
      </trkpt>
      <trkpt lat="47.97555" lon="6.98939">
        <ele>1262.7</ele>
        <time>2022-10-22T14:51:13.000Z</time>
      </trkpt>
      <trkpt lat="47.97563" lon="6.98928">
        <ele>1260.8</ele>
        <time>2022-10-22T14:51:22.392Z</time>
      </trkpt>
      <trkpt lat="47.97567" lon="6.98918">
        <ele>1259.4</ele>
        <time>2022-10-22T14:51:31.511Z</time>
      </trkpt>
      <trkpt lat="47.97564" lon="6.98901">
        <ele>1257.5</ele>
        <time>2022-10-22T14:51:40.614Z</time>
      </trkpt>
      <trkpt lat="47.97561" lon="6.98885">
        <ele>1255.4</ele>
        <time>2022-10-22T14:51:49.689Z</time>
      </trkpt>
      <trkpt lat="47.97556" lon="6.98872">
        <ele>1253.2</ele>
        <time>2022-10-22T14:51:58.768Z</time>
      </trkpt>
      <trkpt lat="47.97551" lon="6.98856">
        <ele>1250.6</ele>
        <time>2022-10-22T14:52:07.889Z</time>
      </trkpt>
      <trkpt lat="47.97551" lon="6.98843">
        <ele>1248.7</ele>
        <time>2022-10-22T14:52:17.000Z</time>
      </trkpt>
      <trkpt lat="47.97562" lon="6.98833">
        <ele>1246.5</ele>
        <time>2022-10-22T14:52:26.873Z</time>
      </trkpt>
      <trkpt lat="47.97568" lon="6.98822">
        <ele>1244.7</ele>
        <time>2022-10-22T14:52:36.090Z</time>
      </trkpt>
      <trkpt lat="47.97579" lon="6.9881">
        <ele>1242.7</ele>
        <time>2022-10-22T14:52:46.130Z</time>
      </trkpt>
      <trkpt lat="47.97588" lon="6.98799">
        <ele>1241.2</ele>
        <time>2022-10-22T14:52:55.852Z</time>
      </trkpt>
      <trkpt lat="47.97598" lon="6.98788">
        <ele>1239.8</ele>
        <time>2022-10-22T14:53:05.228Z</time>
      </trkpt>
      <trkpt lat="47.97608" lon="6.98777">
        <ele>1238</ele>
        <time>2022-10-22T14:53:14.968Z</time>
      </trkpt>
      <trkpt lat="47.97616" lon="6.98763">
        <ele>1236.3</ele>
        <time>2022-10-22T14:53:24.779Z</time>
      </trkpt>
      <trkpt lat="47.97626" lon="6.98757">
        <ele>1235.2</ele>
        <time>2022-10-22T14:53:34.051Z</time>
      </trkpt>
      <trkpt lat="47.97638" lon="6.98751">
        <ele>1234.1</ele>
        <time>2022-10-22T14:53:44.047Z</time>
      </trkpt>
      <trkpt lat="47.97649" lon="6.98744">
        <ele>1232.4</ele>
        <time>2022-10-22T14:53:53.989Z</time>
      </trkpt>
      <trkpt lat="47.97661" lon="6.98738">
        <ele>1231.1</ele>
        <time>2022-10-22T14:54:04.092Z</time>
      </trkpt>
      <trkpt lat="47.97671" lon="6.98735">
        <ele>1229.7</ele>
        <time>2022-10-22T14:54:13.471Z</time>
      </trkpt>
      <trkpt lat="47.97681" lon="6.98733">
        <ele>1228</ele>
        <time>2022-10-22T14:54:22.653Z</time>
      </trkpt>
      <trkpt lat="47.97689" lon="6.98734">
        <ele>1227.1</ele>
        <time>2022-10-22T14:54:31.689Z</time>
      </trkpt>
      <trkpt lat="47.977" lon="6.98736">
        <ele>1225.7</ele>
        <time>2022-10-22T14:54:41.091Z</time>
      </trkpt>
      <trkpt lat="47.97705" lon="6.98721">
        <ele>1223.8</ele>
        <time>2022-10-22T14:54:50.795Z</time>
      </trkpt>
      <trkpt lat="47.97714" lon="6.9871">
        <ele>1221.9</ele>
        <time>2022-10-22T14:55:00.170Z</time>
      </trkpt>
      <trkpt lat="47.97725" lon="6.98699">
        <ele>1220.1</ele>
        <time>2022-10-22T14:55:09.650Z</time>
      </trkpt>
      <trkpt lat="47.97733" lon="6.98691">
        <ele>1218.7</ele>
        <time>2022-10-22T14:55:18.893Z</time>
      </trkpt>
      <trkpt lat="47.97743" lon="6.9868">
        <ele>1217.3</ele>
        <time>2022-10-22T14:55:29.029Z</time>
      </trkpt>
      <trkpt lat="47.97752" lon="6.98671">
        <ele>1215.9</ele>
        <time>2022-10-22T14:55:38.468Z</time>
      </trkpt>
      <trkpt lat="47.97763" lon="6.98665">
        <ele>1214.1</ele>
        <time>2022-10-22T14:55:47.972Z</time>
      </trkpt>
      <trkpt lat="47.97771" lon="6.98655">
        <ele>1212.4</ele>
        <time>2022-10-22T14:55:57.049Z</time>
      </trkpt>
      <trkpt lat="47.97779" lon="6.98648">
        <ele>1211.2</ele>
        <time>2022-10-22T14:56:06.091Z</time>
      </trkpt>
      <trkpt lat="47.9779" lon="6.9864">
        <ele>1209.7</ele>
        <time>2022-10-22T14:56:15.970Z</time>
      </trkpt>
      <trkpt lat="47.97799" lon="6.98632">
        <ele>1208.6</ele>
        <time>2022-10-22T14:56:24.972Z</time>
      </trkpt>
      <trkpt lat="47.97809" lon="6.98623">
        <ele>1207.5</ele>
        <time>2022-10-22T14:56:34.000Z</time>
      </trkpt>
      <trkpt lat="47.97817" lon="6.98615">
        <ele>1206.4</ele>
        <time>2022-10-22T14:56:43.013Z</time>
      </trkpt>
      <trkpt lat="47.97825" lon="6.98606">
        <ele>1205</ele>
        <time>2022-10-22T14:56:52.873Z</time>
      </trkpt>
      <trkpt lat="47.97837" lon="6.98596">
        <ele>1203.8</ele>
        <time>2022-10-22T14:57:02.169Z</time>
      </trkpt>
      <trkpt lat="47.97846" lon="6.98588">
        <ele>1203.1</ele>
        <time>2022-10-22T14:57:11.688Z</time>
      </trkpt>
      <trkpt lat="47.97857" lon="6.9858">
        <ele>1202.2</ele>
        <time>2022-10-22T14:57:21.000Z</time>
      </trkpt>
      <trkpt lat="47.97863" lon="6.9857">
        <ele>1201.3</ele>
        <time>2022-10-22T14:57:31.008Z</time>
      </trkpt>
      <trkpt lat="47.97871" lon="6.98561">
        <ele>1200.1</ele>
        <time>2022-10-22T14:57:40.687Z</time>
      </trkpt>
      <trkpt lat="47.97875" lon="6.98547">
        <ele>1198.9</ele>
        <time>2022-10-22T14:57:50.000Z</time>
      </trkpt>
      <trkpt lat="47.97876" lon="6.98533">
        <ele>1197.8</ele>
        <time>2022-10-22T14:57:59.329Z</time>
      </trkpt>
      <trkpt lat="47.97875" lon="6.98518">
        <ele>1197</ele>
        <time>2022-10-22T14:58:08.668Z</time>
      </trkpt>
      <trkpt lat="47.9788" lon="6.98534">
        <ele>1197.5</ele>
        <time>2022-10-22T14:58:17.830Z</time>
      </trkpt>
      <trkpt lat="47.97879" lon="6.98553">
        <ele>1198.8</ele>
        <time>2022-10-22T14:58:26.992Z</time>
      </trkpt>
      <trkpt lat="47.97887" lon="6.98557">
        <ele>1198.3</ele>
        <time>2022-10-22T14:58:36.070Z</time>
      </trkpt>
      <trkpt lat="47.97894" lon="6.98554">
        <ele>1197.4</ele>
        <time>2022-10-22T14:58:45.648Z</time>
      </trkpt>
      <trkpt lat="47.97902" lon="6.98547">
        <ele>1196.3</ele>
        <time>2022-10-22T14:58:54.952Z</time>
      </trkpt>
      <trkpt lat="47.97913" lon="6.98538">
        <ele>1195.2</ele>
        <time>2022-10-22T14:59:04.610Z</time>
      </trkpt>
      <trkpt lat="47.97924" lon="6.98531">
        <ele>1194.5</ele>
        <time>2022-10-22T14:59:14.132Z</time>
      </trkpt>
      <trkpt lat="47.97935" lon="6.98524">
        <ele>1193.6</ele>
        <time>2022-10-22T14:59:23.813Z</time>
      </trkpt>
      <trkpt lat="47.97944" lon="6.98518">
        <ele>1192.7</ele>
        <time>2022-10-22T14:59:33.000Z</time>
      </trkpt>
      <trkpt lat="47.97955" lon="6.9851">
        <ele>1191.8</ele>
        <time>2022-10-22T14:59:42.989Z</time>
      </trkpt>
      <trkpt lat="47.97966" lon="6.98504">
        <ele>1191.3</ele>
        <time>2022-10-22T14:59:52.570Z</time>
      </trkpt>
      <trkpt lat="47.97976" lon="6.98495">
        <ele>1190.8</ele>
        <time>2022-10-22T15:00:02.069Z</time>
      </trkpt>
      <trkpt lat="47.97986" lon="6.98492">
        <ele>1190.8</ele>
        <time>2022-10-22T15:00:12.000Z</time>
      </trkpt>
      <trkpt lat="47.97993" lon="6.98488">
        <ele>1190.9</ele>
        <time>2022-10-22T15:00:21.131Z</time>
      </trkpt>
      <trkpt lat="47.98005" lon="6.9848">
        <ele>1191.3</ele>
        <time>2022-10-22T15:00:30.778Z</time>
      </trkpt>
      <trkpt lat="47.98016" lon="6.98469">
        <ele>1192.2</ele>
        <time>2022-10-22T15:00:40.000Z</time>
      </trkpt>
      <trkpt lat="47.98025" lon="6.98463">
        <ele>1193.1</ele>
        <time>2022-10-22T15:00:49.133Z</time>
      </trkpt>
      <trkpt lat="47.98034" lon="6.98455">
        <ele>1194.2</ele>
        <time>2022-10-22T15:00:58.590Z</time>
      </trkpt>
      <trkpt lat="47.98044" lon="6.98448">
        <ele>1195.6</ele>
        <time>2022-10-22T15:01:08.000Z</time>
      </trkpt>
      <trkpt lat="47.98053" lon="6.9844">
        <ele>1196.7</ele>
        <time>2022-10-22T15:01:17.051Z</time>
      </trkpt>
      <trkpt lat="47.98063" lon="6.98434">
        <ele>1197.6</ele>
        <time>2022-10-22T15:01:26.832Z</time>
      </trkpt>
      <trkpt lat="47.98073" lon="6.9843">
        <ele>1198.5</ele>
        <time>2022-10-22T15:01:36.149Z</time>
      </trkpt>
      <trkpt lat="47.98081" lon="6.9842">
        <ele>1199.7</ele>
        <time>2022-10-22T15:01:45.810Z</time>
      </trkpt>
      <trkpt lat="47.9809" lon="6.98419">
        <ele>1200.6</ele>
        <time>2022-10-22T15:01:55.000Z</time>
      </trkpt>
      <trkpt lat="47.98096" lon="6.98414">
        <ele>1201.5</ele>
        <time>2022-10-22T15:02:04.372Z</time>
      </trkpt>
      <trkpt lat="47.98105" lon="6.98408">
        <ele>1202.9</ele>
        <time>2022-10-22T15:02:14.000Z</time>
      </trkpt>
      <trkpt lat="47.98115" lon="6.98402">
        <ele>1204.6</ele>
        <time>2022-10-22T15:02:23.529Z</time>
      </trkpt>
      <trkpt lat="47.98125" lon="6.98396">
        <ele>1206.1</ele>
        <time>2022-10-22T15:02:32.713Z</time>
      </trkpt>
      <trkpt lat="47.98137" lon="6.98394">
        <ele>1207.5</ele>
        <time>2022-10-22T15:02:41.890Z</time>
      </trkpt>
      <trkpt lat="47.98148" lon="6.98389">
        <ele>1208.6</ele>
        <time>2022-10-22T15:02:52.093Z</time>
      </trkpt>
      <trkpt lat="47.98159" lon="6.98386">
        <ele>1209.5</ele>
        <time>2022-10-22T15:03:01.892Z</time>
      </trkpt>
      <trkpt lat="47.9817" lon="6.98383">
        <ele>1210.6</ele>
        <time>2022-10-22T15:03:10.930Z</time>
      </trkpt>
      <trkpt lat="47.9818" lon="6.9838">
        <ele>1211.7</ele>
        <time>2022-10-22T15:03:20.071Z</time>
      </trkpt>
      <trkpt lat="47.98191" lon="6.9838">
        <ele>1212.9</ele>
        <time>2022-10-22T15:03:29.913Z</time>
      </trkpt>
      <trkpt lat="47.98201" lon="6.98374">
        <ele>1214.2</ele>
        <time>2022-10-22T15:03:39.029Z</time>
      </trkpt>
      <trkpt lat="47.98212" lon="6.98372">
        <ele>1215.5</ele>
        <time>2022-10-22T15:03:48.151Z</time>
      </trkpt>
      <trkpt lat="47.98222" lon="6.98368">
        <ele>1216.8</ele>
        <time>2022-10-22T15:03:57.873Z</time>
      </trkpt>
      <trkpt lat="47.98234" lon="6.98364">
        <ele>1217.7</ele>
        <time>2022-10-22T15:04:07.130Z</time>
      </trkpt>
      <trkpt lat="47.98243" lon="6.9836">
        <ele>1218.5</ele>
        <time>2022-10-22T15:04:16.910Z</time>
      </trkpt>
      <trkpt lat="47.98254" lon="6.98353">
        <ele>1218.8</ele>
        <time>2022-10-22T15:04:26.000Z</time>
      </trkpt>
      <trkpt lat="47.98263" lon="6.98343">
        <ele>1219</ele>
        <time>2022-10-22T15:04:35.592Z</time>
      </trkpt>
      <trkpt lat="47.98273" lon="6.98338">
        <ele>1219.6</ele>
        <time>2022-10-22T15:04:44.889Z</time>
      </trkpt>
      <trkpt lat="47.98282" lon="6.98336">
        <ele>1220.3</ele>
        <time>2022-10-22T15:04:54.091Z</time>
      </trkpt>
      <trkpt lat="47.98281" lon="6.98334">
        <ele>1220.4</ele>
        <time>2022-10-22T15:05:03.937Z</time>
      </trkpt>
      <trkpt lat="47.98289" lon="6.98336">
        <ele>1221</ele>
        <time>2022-10-22T15:05:13.000Z</time>
      </trkpt>
      <trkpt lat="47.98301" lon="6.98339">
        <ele>1222</ele>
        <time>2022-10-22T15:05:22.992Z</time>
      </trkpt>
      <trkpt lat="47.98313" lon="6.98333">
        <ele>1223.2</ele>
        <time>2022-10-22T15:05:32.992Z</time>
      </trkpt>
      <trkpt lat="47.98322" lon="6.98329">
        <ele>1224</ele>
        <time>2022-10-22T15:05:42.000Z</time>
      </trkpt>
      <trkpt lat="47.98324" lon="6.98322">
        <ele>1224.7</ele>
        <time>2022-10-22T15:05:52.000Z</time>
      </trkpt>
      <trkpt lat="47.98332" lon="6.98309">
        <ele>1226.5</ele>
        <time>2022-10-22T15:06:02.073Z</time>
      </trkpt>
      <trkpt lat="47.98338" lon="6.983">
        <ele>1227.3</ele>
        <time>2022-10-22T15:06:11.089Z</time>
      </trkpt>
      <trkpt lat="47.98349" lon="6.9829">
        <ele>1227.9</ele>
        <time>2022-10-22T15:06:21.111Z</time>
      </trkpt>
      <trkpt lat="47.98358" lon="6.9828">
        <ele>1228.7</ele>
        <time>2022-10-22T15:06:30.872Z</time>
      </trkpt>
      <trkpt lat="47.98367" lon="6.98274">
        <ele>1228.3</ele>
        <time>2022-10-22T15:06:40.110Z</time>
      </trkpt>
      <trkpt lat="47.98377" lon="6.98271">
        <ele>1227.2</ele>
        <time>2022-10-22T15:06:49.808Z</time>
      </trkpt>
      <trkpt lat="47.98387" lon="6.98269">
        <ele>1226.2</ele>
        <time>2022-10-22T15:06:59.072Z</time>
      </trkpt>
      <trkpt lat="47.98397" lon="6.98263">
        <ele>1224.8</ele>
        <time>2022-10-22T15:07:08.910Z</time>
      </trkpt>
      <trkpt lat="47.98405" lon="6.98254">
        <ele>1223.7</ele>
        <time>2022-10-22T15:07:18.000Z</time>
      </trkpt>
      <trkpt lat="47.98413" lon="6.98247">
        <ele>1222.5</ele>
        <time>2022-10-22T15:07:27.891Z</time>
      </trkpt>
      <trkpt lat="47.98419" lon="6.98231">
        <ele>1222</ele>
        <time>2022-10-22T15:07:37.000Z</time>
      </trkpt>
      <trkpt lat="47.98425" lon="6.98221">
        <ele>1222.1</ele>
        <time>2022-10-22T15:07:46.151Z</time>
      </trkpt>
      <trkpt lat="47.98435" lon="6.9821">
        <ele>1222.7</ele>
        <time>2022-10-22T15:07:55.872Z</time>
      </trkpt>
      <trkpt lat="47.98442" lon="6.98203">
        <ele>1223.4</ele>
        <time>2022-10-22T15:08:05.449Z</time>
      </trkpt>
      <trkpt lat="47.98441" lon="6.98202">
        <ele>1223.4</ele>
        <time>2022-10-22T15:08:15.000Z</time>
      </trkpt>
      <trkpt lat="47.98443" lon="6.982">
        <ele>1223.6</ele>
        <time>2022-10-22T15:08:20.000Z</time>
        <extensions>
          <visugpx:TrkExtension xmlns:visugpx="https://www.visugpx.com/editgpx/">
            <visugpx:node>4</visugpx:node>
            </visugpx:TrkExtension>
        </extensions>
      </trkpt>
    </trkseg>
  </trk>
</gpx>